Observation data for Fort McKavett on 11/19/2019      Previous  Date  Next       Current Mesonet Observations  Soil Data  Daily Summary Page  Observations in Plain Language
KMC1 190600Z 24003KT 05/02 A2999 RMK A01 T00500019  RH  080%=      5-min Rain = 0
KMC1 190601Z 23003KT 05/02 A2999 RMK A01 T00490019  RH  081%=      5-min Rain = 0
KMC1 190602Z 23003KT 05/02 A2999 RMK A01 T00490019  RH  081%=      5-min Rain = 0
KMC1 190603Z 22003KT 05/02 A2999 RMK A01 T00500019  RH  080%=      5-min Rain = 0
KMC1 190604Z 22003KT 05/02 A2999 RMK A01 T00500019  RH  080%=      5-min Rain = 0
KMC1 190605Z 22003KT 05/02 A2999 RMK A01 T00510019  RH  080%=      5-min Rain = 0
KMC1 190606Z 22003KT 05/02 A2999 RMK A01 T00510019  RH  080%=      5-min Rain = 0
KMC1 190607Z 23003KT 05/02 A2999 RMK A01 T00510019  RH  080%=      5-min Rain = 0
KMC1 190608Z 24002KT 05/02 A2999 RMK A01 T00510018  RH  079%=      5-min Rain = 0
KMC1 190609Z 24002KT 05/02 A2999 RMK A01 T00510018  RH  079%=      5-min Rain = 0
KMC1 190610Z 23002KT 05/02 A2999 RMK A01 T00510018  RH  079%=      5-min Rain = 0
KMC1 190611Z 23003KT 05/02 A2999 RMK A01 T00510018  RH  079%=      5-min Rain = 0
KMC1 190612Z 22003KT 05/02 A2999 RMK A01 T00510018  RH  079%=      5-min Rain = 0
KMC1 190613Z 22003KT 05/02 A2999 RMK A01 T00510018  RH  079%=      5-min Rain = 0
KMC1 190614Z 22003KT 05/02 A2999 RMK A01 T00510018  RH  079%=      5-min Rain = 0
KMC1 190615Z 22004KT 05/02 A2999 RMK A01 T00510018  RH  079%=      5-min Rain = 0
KMC1 190616Z 22004KT 05/02 A2999 RMK A01 T00510018  RH  079%=      5-min Rain = 0
KMC1 190617Z 21004KT 05/02 A2999 RMK A01 T00520018  RH  079%=      5-min Rain = 0
KMC1 190618Z 22004KT 05/02 A2999 RMK A01 T00510018  RH  079%=      5-min Rain = 0
KMC1 190619Z 22004KT 05/02 A2999 RMK A01 T00510018  RH  079%=      5-min Rain = 0
KMC1 190620Z 22004KT 05/02 A2998 RMK A01 T00500017  RH  079%=      5-min Rain = 0
KMC1 190621Z 22004KT 05/02 A2998 RMK A01 T00500017  RH  079%=      5-min Rain = 0
KMC1 190622Z 22004KT 05/02 A2999 RMK A01 T00490017  RH  080%=      5-min Rain = 0
KMC1 190623Z 23004KT 05/02 A2999 RMK A01 T00490017  RH  080%=      5-min Rain = 0
KMC1 190624Z 23003KT 05/02 A2999 RMK A01 T00490017  RH  080%=      5-min Rain = 0
KMC1 190625Z 23004KT 05/02 A2999 RMK A01 T00480017  RH  080%=      5-min Rain = 0
KMC1 190626Z 23004KT 05/02 A2999 RMK A01 T00480017  RH  081%=      5-min Rain = 0
KMC1 190627Z 23004KT 05/02 A2999 RMK A01 T00470017  RH  081%=      5-min Rain = 0
KMC1 190628Z 23003KT 05/02 A2999 RMK A01 T00480017  RH  081%=      5-min Rain = 0
KMC1 190629Z 23003KT 05/02 A2999 RMK A01 T00470017  RH  081%=      5-min Rain = 0
KMC1 190630Z 24003KT 05/02 A2998 RMK A01 T00470017  RH  081%=      5-min Rain = 0
KMC1 190631Z 24003KT 05/02 A2998 RMK A01 T00470018  RH  081%=      5-min Rain = 0
KMC1 190632Z 24003KT 05/02 A2998 RMK A01 T00470017  RH  081%=      5-min Rain = 0
KMC1 190633Z 24003KT 05/02 A2998 RMK A01 T00470017  RH  081%=      5-min Rain = 0
KMC1 190634Z 24004KT 05/02 A2998 RMK A01 T00460017  RH  081%=      5-min Rain = 0
KMC1 190635Z 24004KT 05/02 A2998 RMK A01 T00460017  RH  082%=      5-min Rain = 0
KMC1 190636Z 24004KT 05/02 A2998 RMK A01 T00460018  RH  082%=      5-min Rain = 0
KMC1 190637Z 24004KT 05/02 A2998 RMK A01 T00470018  RH  082%=      5-min Rain = 0
KMC1 190638Z 24003KT 05/02 A2998 RMK A01 T00470017  RH  081%=      5-min Rain = 0
KMC1 190639Z 24003KT 05/02 A2998 RMK A01 T00470018  RH  081%=      5-min Rain = 0
KMC1 190640Z 24003KT 05/02 A2998 RMK A01 T00470017  RH  081%=      5-min Rain = 0
KMC1 190641Z 24003KT 05/02 A2998 RMK A01 T00460017  RH  081%=      5-min Rain = 0
KMC1 190642Z 24004KT 05/02 A2998 RMK A01 T00460017  RH  081%=      5-min Rain = 0
KMC1 190643Z 24004KT 05/02 A2998 RMK A01 T00460017  RH  082%=      5-min Rain = 0
KMC1 190644Z 24004KT 05/02 A2998 RMK A01 T00470018  RH  082%=      5-min Rain = 0
KMC1 190645Z 24003KT 05/02 A2998 RMK A01 T00460017  RH  082%=      5-min Rain = 0
KMC1 190646Z 24003KT 05/02 A2998 RMK A01 T00460018  RH  082%=      5-min Rain = 0
KMC1 190647Z 24003KT 05/02 A2998 RMK A01 T00460018  RH  082%=      5-min Rain = 0
KMC1 190648Z 24003KT 05/02 A2998 RMK A01 T00460018  RH  082%=      5-min Rain = 0
KMC1 190649Z 24003KT 05/02 A2998 RMK A01 T00460018  RH  082%=      5-min Rain = 0
KMC1 190650Z 24003KT 05/02 A2998 RMK A01 T00460017  RH  082%=      5-min Rain = 0
KMC1 190651Z 23003KT 05/02 A2998 RMK A01 T00460017  RH  082%=      5-min Rain = 0
KMC1 190652Z 23003KT 05/02 A2998 RMK A01 T00460017  RH  082%=      5-min Rain = 0
KMC1 190653Z 22003KT 05/02 A2998 RMK A01 T00450017  RH  082%=      5-min Rain = 0
KMC1 190654Z 22003KT 05/02 A2998 RMK A01 T00450017  RH  082%=      5-min Rain = 0
KMC1 190655Z 22003KT 05/02 A2998 RMK A01 T00450017  RH  082%=      5-min Rain = 0
KMC1 190656Z 22004KT 05/02 A2998 RMK A01 T00450017  RH  082%=      5-min Rain = 0
KMC1 190657Z 22003KT 05/02 A2998 RMK A01 T00450017  RH  082%=      5-min Rain = 0
KMC1 190658Z 22004KT 05/02 A2998 RMK A01 T00450017  RH  082%=      5-min Rain = 0
KMC1 190659Z 22003KT 05/02 A2998 RMK A01 T00450016  RH  082%=      5-min Rain = 0
KMC1 190700Z 22004KT 04/02 A2998 RMK A01 T00440016  RH  082%=      5-min Rain = 0
KMC1 190701Z 22003KT 04/02 A2998 RMK A01 T00440016  RH  082%=      5-min Rain = 0
KMC1 190702Z 22004KT 04/02 A2998 RMK A01 T00430015  RH  082%=      5-min Rain = 0
KMC1 190703Z 22004KT 04/02 A2998 RMK A01 T00440015  RH  082%=      5-min Rain = 0
KMC1 190704Z 22004KT 04/02 A2998 RMK A01 T00430015  RH  082%=      5-min Rain = 0
KMC1 190705Z 22004KT 04/02 A2998 RMK A01 T00430015  RH  082%=      5-min Rain = 0
KMC1 190706Z 22004KT 04/02 A2998 RMK A01 T00420015  RH  082%=      5-min Rain = 0
KMC1 190707Z 22004KT 04/02 A2998 RMK A01 T00420015  RH  083%=      5-min Rain = 0
KMC1 190708Z 22004KT 04/02 A2998 RMK A01 T00410015  RH  083%=      5-min Rain = 0
KMC1 190709Z 22004KT 04/02 A2998 RMK A01 T00410015  RH  083%=      5-min Rain = 0
KMC1 190710Z 22005KT 04/01 A2998 RMK A01 T00410014  RH  083%=      5-min Rain = 0
KMC1 190711Z 23005KT 04/01 A2998 RMK A01 T00410014  RH  083%=      5-min Rain = 0
KMC1 190712Z 23005KT 04/01 A2998 RMK A01 T00400014  RH  083%=      5-min Rain = 0
KMC1 190713Z 23005KT 04/01 A2998 RMK A01 T00400014  RH  083%=      5-min Rain = 0
KMC1 190714Z 23005KT 04/01 A2998 RMK A01 T00400014  RH  083%=      5-min Rain = 0
KMC1 190715Z 23005KT 04/01 A2998 RMK A01 T00400014  RH  083%=      5-min Rain = 0
KMC1 190716Z 23005KT 04/01 A2998 RMK A01 T00400014  RH  083%=      5-min Rain = 0
KMC1 190717Z 23004KT 04/01 A2998 RMK A01 T00390014  RH  084%=      5-min Rain = 0
KMC1 190718Z 23004KT 04/01 A2998 RMK A01 T00390014  RH  084%=      5-min Rain = 0
KMC1 190719Z 23004KT 04/01 A2998 RMK A01 T00390014  RH  084%=      5-min Rain = 0
KMC1 190720Z 23004KT 04/01 A2998 RMK A01 T00390014  RH  084%=      5-min Rain = 0
KMC1 190721Z 23004KT 04/01 A2998 RMK A01 T00380014  RH  084%=      5-min Rain = 0
KMC1 190722Z 23004KT 04/01 A2998 RMK A01 T00380014  RH  084%=      5-min Rain = 0
KMC1 190723Z 23004KT 04/01 A2998 RMK A01 T00380014  RH  084%=      5-min Rain = 0
KMC1 190724Z 23004KT 04/02 A2998 RMK A01 T00380015  RH  085%=      5-min Rain = 0
KMC1 190725Z 23004KT 04/02 A2998 RMK A01 T00380015  RH  085%=      5-min Rain = 0
KMC1 190726Z 23005KT 04/02 A2998 RMK A01 T00380015  RH  085%=      5-min Rain = 0
KMC1 190727Z 23004KT 04/02 A2998 RMK A01 T00380015  RH  085%=      5-min Rain = 0
KMC1 190728Z 22004KT 04/02 A2998 RMK A01 T00390016  RH  085%=      5-min Rain = 0
KMC1 190729Z 22004KT 04/02 A2998 RMK A01 T00390015  RH  085%=      5-min Rain = 0
KMC1 190730Z 22004KT 04/02 A2998 RMK A01 T00390015  RH  085%=      5-min Rain = 0
KMC1 190731Z 21004KT 04/02 A2998 RMK A01 T00390015  RH  084%=      5-min Rain = 0
KMC1 190732Z 21004KT 04/02 A2998 RMK A01 T00390015  RH  084%=      5-min Rain = 0
KMC1 190733Z 21005KT 04/02 A2998 RMK A01 T00390016  RH  084%=      5-min Rain = 0
KMC1 190734Z 21005KT 04/02 A2998 RMK A01 T00400016  RH  084%=      5-min Rain = 0
KMC1 190735Z 21005KT 04/02 A2998 RMK A01 T00400016  RH  084%=      5-min Rain = 0
KMC1 190736Z 21005KT 04/02 A2998 RMK A01 T00400015  RH  084%=      5-min Rain = 0
KMC1 190737Z 21005KT 04/02 A2998 RMK A01 T00400015  RH  084%=      5-min Rain = 0
KMC1 190738Z 21005KT 04/02 A2998 RMK A01 T00400015  RH  084%=      5-min Rain = 0
KMC1 190739Z 22005KT 04/01 A2998 RMK A01 T00400014  RH  084%=      5-min Rain = 0
KMC1 190740Z 22005KT 04/01 A2998 RMK A01 T00390014  RH  084%=      5-min Rain = 0
KMC1 190741Z 22004KT 04/01 A2998 RMK A01 T00390014  RH  084%=      5-min Rain = 0
KMC1 190742Z 22004KT 04/01 A2998 RMK A01 T00390014  RH  084%=      5-min Rain = 0
KMC1 190743Z 22004KT 04/01 A2998 RMK A01 T00380013  RH  084%=      5-min Rain = 0
KMC1 190744Z 23004KT 04/01 A2998 RMK A01 T00380013  RH  084%=      5-min Rain = 0
KMC1 190745Z 23004KT 04/01 A2998 RMK A01 T00370013  RH  084%=      5-min Rain = 0
KMC1 190746Z 23004KT 04/01 A2998 RMK A01 T00360012  RH  084%=      5-min Rain = 0
KMC1 190747Z 23004KT 04/01 A2998 RMK A01 T00350012  RH  085%=      5-min Rain = 0
KMC1 190748Z 23004KT 04/01 A2998 RMK A01 T00350012  RH  085%=      5-min Rain = 0
KMC1 190749Z 23004KT 04/01 A2998 RMK A01 T00350012  RH  085%=      5-min Rain = 0
KMC1 190750Z 23004KT 03/01 A2998 RMK A01 T00340012  RH  085%=      5-min Rain = 0
KMC1 190751Z 23003KT 03/01 A2998 RMK A01 T00340011  RH  085%=      5-min Rain = 0
KMC1 190752Z 23003KT 03/01 A2998 RMK A01 T00330011  RH  085%=      5-min Rain = 0
KMC1 190753Z 22003KT 03/01 A2998 RMK A01 T00330011  RH  086%=      5-min Rain = 0
KMC1 190754Z 22004KT 03/01 A2998 RMK A01 T00330011  RH  086%=      5-min Rain = 0
KMC1 190755Z 22004KT 03/01 A2998 RMK A01 T00330012  RH  086%=      5-min Rain = 0
KMC1 190756Z 22004KT 03/01 A2998 RMK A01 T00330012  RH  086%=      5-min Rain = 0
KMC1 190757Z 22003KT 03/01 A2998 RMK A01 T00330012  RH  086%=      5-min Rain = 0
KMC1 190758Z 22003KT 03/01 A2998 RMK A01 T00330012  RH  086%=      5-min Rain = 0
KMC1 190759Z 24003KT 03/01 A2998 RMK A01 T00330011  RH  086%=      5-min Rain = 0
KMC1 190800Z 24002KT 03/01 A2998 RMK A01 T00330011  RH  085%=      5-min Rain = 0
KMC1 190801Z 24003KT 03/01 A2998 RMK A01 T00330010  RH  085%=      5-min Rain = 0
KMC1 190802Z 23003KT 03/01 A2998 RMK A01 T00320009  RH  085%=      5-min Rain = 0
KMC1 190803Z 23003KT 03/01 A2999 RMK A01 T00320009  RH  085%=      5-min Rain = 0
KMC1 190804Z 24003KT 03/01 A2999 RMK A01 T00320009  RH  085%=      5-min Rain = 0
KMC1 190805Z 25003KT 03/01 A2999 RMK A01 T00310009  RH  085%=      5-min Rain = 0
KMC1 190806Z 24003KT 03/01 A2999 RMK A01 T00310010  RH  086%=      5-min Rain = 0
KMC1 190807Z 24003KT 03/01 A2999 RMK A01 T00310010  RH  086%=      5-min Rain = 0
KMC1 190808Z 24003KT 03/01 A2999 RMK A01 T00310010  RH  086%=      5-min Rain = 0
KMC1 190809Z 24004KT 03/01 A2999 RMK A01 T00310010  RH  086%=      5-min Rain = 0
KMC1 190810Z 24004KT 03/01 A2999 RMK A01 T00310010  RH  086%=      5-min Rain = 0
KMC1 190811Z 24004KT 03/01 A2999 RMK A01 T00310010  RH  086%=      5-min Rain = 0
KMC1 190812Z 25004KT 03/01 A2999 RMK A01 T00310010  RH  086%=      5-min Rain = 0
KMC1 190813Z 24004KT 03/01 A2999 RMK A01 T00310010  RH  086%=      5-min Rain = 0
KMC1 190814Z 24004KT 03/01 A2999 RMK A01 T00310010  RH  086%=      5-min Rain = 0
KMC1 190815Z 24004KT 03/01 A2999 RMK A01 T00310010  RH  087%=      5-min Rain = 0
KMC1 190816Z 24004KT 03/01 A2999 RMK A01 T00310011  RH  087%=      5-min Rain = 0
KMC1 190817Z 24004KT 03/01 A2999 RMK A01 T00310011  RH  087%=      5-min Rain = 0
KMC1 190818Z 24004KT 03/01 A2999 RMK A01 T00320012  RH  087%=      5-min Rain = 0
KMC1 190819Z 24004KT 03/01 A2999 RMK A01 T00320014  RH  088%=      5-min Rain = 0
KMC1 190820Z 24004KT 03/01 A2999 RMK A01 T00330014  RH  087%=      5-min Rain = 0
KMC1 190821Z 24004KT 03/01 A2999 RMK A01 T00330014  RH  087%=      5-min Rain = 0
KMC1 190822Z 24004KT 03/01 A2999 RMK A01 T00340014  RH  087%=      5-min Rain = 0
KMC1 190823Z 24004KT 03/01 A2999 RMK A01 T00340014  RH  086%=      5-min Rain = 0
KMC1 190824Z 24004KT 03/01 A2999 RMK A01 T00340013  RH  086%=      5-min Rain = 0
KMC1 190825Z 23004KT 03/01 A2999 RMK A01 T00340013  RH  086%=      5-min Rain = 0
KMC1 190826Z 23005KT 03/01 A2999 RMK A01 T00340013  RH  086%=      5-min Rain = 0
KMC1 190827Z 23004KT 03/01 A2999 RMK A01 T00330012  RH  086%=      5-min Rain = 0
KMC1 190828Z 23004KT 03/01 A2999 RMK A01 T00340013  RH  086%=      5-min Rain = 0
KMC1 190829Z 23005KT 03/01 A2999 RMK A01 T00330013  RH  086%=      5-min Rain = 0
KMC1 190830Z 24004KT 03/01 A2999 RMK A01 T00340013  RH  086%=      5-min Rain = 0
KMC1 190831Z 24004KT 03/01 A2999 RMK A01 T00340013  RH  086%=      5-min Rain = 0
KMC1 190832Z 24004KT 03/01 A2999 RMK A01 T00330012  RH  086%=      5-min Rain = 0
KMC1 190833Z 24004KT 03/01 A2999 RMK A01 T00330011  RH  086%=      5-min Rain = 0
KMC1 190834Z 23004KT 03/01 A2999 RMK A01 T00320011  RH  086%=      5-min Rain = 0
KMC1 190835Z 23004KT 03/01 A2999 RMK A01 T00320012  RH  087%=      5-min Rain = 0
KMC1 190836Z 23004KT 03/01 A2999 RMK A01 T00320012  RH  087%=      5-min Rain = 0
KMC1 190837Z 23004KT 03/01 A2999 RMK A01 T00320013  RH  087%=      5-min Rain = 0
KMC1 190838Z 24004KT 03/01 A2999 RMK A01 T00320013  RH  087%=      5-min Rain = 0
KMC1 190839Z 23004KT 03/01 A2999 RMK A01 T00320013  RH  087%=      5-min Rain = 0
KMC1 190840Z 23004KT 03/01 A2999 RMK A01 T00320013  RH  087%=      5-min Rain = 0
KMC1 190841Z 23004KT 03/01 A2999 RMK A01 T00320013  RH  087%=      5-min Rain = 0
KMC1 190842Z 23003KT 03/01 A2999 RMK A01 T00320013  RH  087%=      5-min Rain = 0
KMC1 190843Z 24004KT 03/01 A2999 RMK A01 T00320013  RH  087%=      5-min Rain = 0
KMC1 190844Z 24004KT 03/01 A2999 RMK A01 T00320013  RH  087%=      5-min Rain = 0
KMC1 190845Z 24004KT 03/01 A2999 RMK A01 T00320013  RH  087%=      5-min Rain = 0
KMC1 190846Z 25004KT 03/01 A2999 RMK A01 T00320012  RH  087%=      5-min Rain = 0
KMC1 190847Z 25004KT 03/01 A2999 RMK A01 T00320012  RH  087%=      5-min Rain = 0
KMC1 190848Z 25004KT 03/01 A2999 RMK A01 T00320012  RH  087%=      5-min Rain = 0
KMC1 190849Z 25004KT 03/01 A2999 RMK A01 T00310011  RH  087%=      5-min Rain = 0
KMC1 190850Z 25004KT 03/01 A2999 RMK A01 T00310012  RH  087%=      5-min Rain = 0
KMC1 190851Z 26003KT 03/01 A2999 RMK A01 T00310012  RH  087%=      5-min Rain = 0
KMC1 190852Z 26003KT 03/01 A2999 RMK A01 T00310011  RH  087%=      5-min Rain = 0
KMC1 190853Z 26003KT 03/01 A2999 RMK A01 T00300010  RH  086%=      5-min Rain = 0
KMC1 190854Z 26003KT 03/01 A2999 RMK A01 T00300009  RH  086%=      5-min Rain = 0
KMC1 190855Z 26003KT 03/01 A2999 RMK A01 T00290009  RH  086%=      5-min Rain = 0
KMC1 190856Z 26003KT 03/01 A2999 RMK A01 T00290009  RH  087%=      5-min Rain = 0
KMC1 190857Z 25003KT 03/01 A2998 RMK A01 T00280009  RH  087%=      5-min Rain = 0
KMC1 190858Z 26003KT 03/01 A2998 RMK A01 T00290010  RH  088%=      5-min Rain = 0
KMC1 190859Z 25003KT 03/01 A2998 RMK A01 T00290010  RH  088%=      5-min Rain = 0
KMC1 190900Z 26003KT 03/01 A2998 RMK A01 T00280010  RH  088%=      5-min Rain = 0
KMC1 190901Z 25003KT 03/01 A2998 RMK A01 T00290011  RH  088%=      5-min Rain = 0
KMC1 190902Z 25003KT 03/01 A2998 RMK A01 T00290010  RH  088%=      5-min Rain = 0
KMC1 190903Z 25002KT 03/01 A2998 RMK A01 T00290011  RH  088%=      5-min Rain = 0
KMC1 190904Z 25003KT 03/01 A2998 RMK A01 T00290012  RH  088%=      5-min Rain = 0
KMC1 190905Z 23003KT 03/01 A2998 RMK A01 T00290012  RH  088%=      5-min Rain = 0
KMC1 190906Z 24002KT 03/01 A2998 RMK A01 T00300012  RH  088%=      5-min Rain = 0
KMC1 190907Z 24002KT 03/01 A2998 RMK A01 T00300013  RH  089%=      5-min Rain = 0
KMC1 190908Z 24002KT 03/01 A2998 RMK A01 T00300013  RH  089%=      5-min Rain = 0
KMC1 190909Z 24002KT 03/01 A2998 RMK A01 T00300013  RH  089%=      5-min Rain = 0
KMC1 190910Z 24002KT 03/01 A2998 RMK A01 T00310014  RH  089%=      5-min Rain = 0
KMC1 190911Z 24002KT 03/01 A2998 RMK A01 T00310013  RH  088%=      5-min Rain = 0
KMC1 190912Z 23002KT 03/01 A2998 RMK A01 T00310014  RH  089%=      5-min Rain = 0
KMC1 190913Z 23001KT 03/01 A2998 RMK A01 T00310014  RH  089%=      5-min Rain = 0
KMC1 190914Z 23001KT 03/01 A2998 RMK A01 T00310013  RH  088%=      5-min Rain = 0
KMC1 190915Z 23001KT 03/01 A2998 RMK A01 T00310013  RH  088%=      5-min Rain = 0
KMC1 190916Z 23001KT 03/01 A2998 RMK A01 T00310013  RH  088%=      5-min Rain = 0
KMC1 190917Z 21001KT 03/01 A2998 RMK A01 T00310013  RH  088%=      5-min Rain = 0
KMC1 190918Z 20001KT 03/01 A2998 RMK A01 T00310014  RH  088%=      5-min Rain = 0
KMC1 190919Z 20000KT 03/02 A2998 RMK A01 T00320015  RH  089%=      5-min Rain = 0
KMC1 190920Z 19000KT 03/02 A2998 RMK A01 T00330016  RH  089%=      5-min Rain = 0
KMC1 190921Z 19001KT 03/02 A2998 RMK A01 T00330017  RH  089%=      5-min Rain = 0
KMC1 190922Z 19001KT 03/02 A2998 RMK A01 T00340017  RH  089%=      5-min Rain = 0
KMC1 190923Z 19001KT 03/02 A2998 RMK A01 T00340018  RH  089%=      5-min Rain = 0
KMC1 190924Z 19001KT 04/02 A2998 RMK A01 T00350018  RH  089%=      5-min Rain = 0
KMC1 190925Z 19001KT 04/02 A2998 RMK A01 T00350019  RH  089%=      5-min Rain = 0
KMC1 190926Z 19001KT 04/02 A2998 RMK A01 T00360021  RH  090%=      5-min Rain = 0
KMC1 190927Z 19001KT 04/02 A2998 RMK A01 T00370023  RH  091%=      5-min Rain = 0
KMC1 190928Z 19001KT 04/02 A2998 RMK A01 T00370022  RH  090%=      5-min Rain = 0
KMC1 190929Z 19001KT 04/02 A2998 RMK A01 T00370022  RH  090%=      5-min Rain = 0
KMC1 190930Z 19001KT 04/02 A2998 RMK A01 T00380022  RH  090%=      5-min Rain = 0
KMC1 190931Z 19001KT 04/02 A2998 RMK A01 T00380024  RH  090%=      5-min Rain = 0
KMC1 190932Z 20001KT 04/02 A2998 RMK A01 T00390024  RH  090%=      5-min Rain = 0
KMC1 190933Z 20001KT 04/02 A2998 RMK A01 T00400024  RH  090%=      5-min Rain = 0
KMC1 190934Z 21001KT 04/02 A2998 RMK A01 T00400024  RH  089%=      5-min Rain = 0
KMC1 190935Z 22001KT 04/02 A2998 RMK A01 T00400024  RH  089%=      5-min Rain = 0
KMC1 190936Z 22001KT 04/03 A2998 RMK A01 T00410025  RH  090%=      5-min Rain = 0
KMC1 190937Z 23001KT 04/03 A2998 RMK A01 T00410025  RH  090%=      5-min Rain = 0
KMC1 190938Z 23001KT 04/03 A2998 RMK A01 T00410025  RH  090%=      5-min Rain = 0
KMC1 190939Z 23001KT 04/03 A2998 RMK A01 T00400025  RH  090%=      5-min Rain = 0
KMC1 190940Z 23001KT 04/03 A2998 RMK A01 T00400025  RH  090%=      5-min Rain = 0
KMC1 190941Z 23002KT 04/03 A2998 RMK A01 T00400025  RH  090%=      5-min Rain = 0
KMC1 190942Z 23002KT 04/03 A2998 RMK A01 T00400025  RH  090%=      5-min Rain = 0
KMC1 190943Z 23002KT 04/03 A2998 RMK A01 T00400025  RH  090%=      5-min Rain = 0
KMC1 190944Z 22002KT 04/03 A2998 RMK A01 T00400025  RH  090%=      5-min Rain = 0
KMC1 190945Z 22002KT 04/03 A2998 RMK A01 T00390025  RH  091%=      5-min Rain = 0
KMC1 190946Z 22002KT 04/03 A2998 RMK A01 T00390025  RH  091%=      5-min Rain = 0
KMC1 190947Z 22002KT 04/03 A2998 RMK A01 T00390026  RH  091%=      5-min Rain = 0
KMC1 190948Z 23002KT 04/03 A2998 RMK A01 T00390025  RH  090%=      5-min Rain = 0
KMC1 190949Z 23002KT 04/02 A2998 RMK A01 T00390023  RH  089%=      5-min Rain = 0
KMC1 190950Z 23002KT 04/02 A2998 RMK A01 T00380021  RH  089%=      5-min Rain = 0
KMC1 190951Z 23002KT 04/02 A2999 RMK A01 T00370018  RH  088%=      5-min Rain = 0
KMC1 190952Z 23002KT 04/02 A2999 RMK A01 T00360017  RH  087%=      5-min Rain = 0
KMC1 190953Z 22002KT 04/02 A2999 RMK A01 T00350016  RH  088%=      5-min Rain = 0
KMC1 190954Z 22002KT 04/02 A2999 RMK A01 T00350016  RH  088%=      5-min Rain = 0
KMC1 190955Z 23002KT 03/02 A2999 RMK A01 T00340016  RH  088%=      5-min Rain = 0
KMC1 190956Z 23002KT 03/02 A2999 RMK A01 T00340015  RH  088%=      5-min Rain = 0
KMC1 190957Z 23002KT 03/01 A2999 RMK A01 T00330013  RH  087%=      5-min Rain = 0
KMC1 190958Z 24002KT 03/01 A2998 RMK A01 T00320012  RH  087%=      5-min Rain = 0
KMC1 190959Z 24002KT 03/01 A2998 RMK A01 T00310012  RH  088%=      5-min Rain = 0
KMC1 191000Z 24002KT 03/01 A2998 RMK A01 T00310013  RH  088%=      5-min Rain = 0
KMC1 191001Z 25002KT 03/01 A2998 RMK A01 T00300013  RH  089%=      5-min Rain = 0
KMC1 191002Z 26002KT 03/01 A2998 RMK A01 T00310014  RH  089%=      5-min Rain = 0
KMC1 191003Z 26002KT 03/01 A2998 RMK A01 T00310014  RH  089%=      5-min Rain = 0
KMC1 191004Z 27002KT 03/01 A2998 RMK A01 T00310013  RH  088%=      5-min Rain = 0
KMC1 191005Z 27002KT 03/01 A2998 RMK A01 T00310013  RH  088%=      5-min Rain = 0
KMC1 191006Z 27002KT 03/01 A2998 RMK A01 T00310013  RH  088%=      5-min Rain = 0
KMC1 191007Z 27002KT 03/01 A2998 RMK A01 T00310012  RH  087%=      5-min Rain = 0
KMC1 191008Z 27002KT 03/01 A2998 RMK A01 T00310011  RH  087%=      5-min Rain = 0
KMC1 191009Z 27002KT 03/01 A2998 RMK A01 T00310011  RH  087%=      5-min Rain = 0
KMC1 191010Z 27002KT 03/01 A2998 RMK A01 T00300010  RH  087%=      5-min Rain = 0
KMC1 191011Z 27002KT 03/01 A2998 RMK A01 T00290009  RH  087%=      5-min Rain = 0
KMC1 191012Z 27002KT 03/01 A2998 RMK A01 T00280008  RH  087%=      5-min Rain = 0
KMC1 191013Z 27002KT 03/01 A2998 RMK A01 T00280008  RH  087%=      5-min Rain = 0
KMC1 191014Z 27002KT 03/01 A2998 RMK A01 T00280009  RH  087%=      5-min Rain = 0
KMC1 191015Z 27002KT 03/01 A2998 RMK A01 T00270008  RH  088%=      5-min Rain = 0
KMC1 191016Z 28002KT 03/01 A2998 RMK A01 T00270008  RH  088%=      5-min Rain = 0
KMC1 191017Z 28002KT 03/01 A2998 RMK A01 T00260008  RH  088%=      5-min Rain = 0
KMC1 191018Z 28002KT 03/01 A2998 RMK A01 T00260008  RH  088%=      5-min Rain = 0
KMC1 191019Z 28002KT 03/01 A2998 RMK A01 T00260008  RH  088%=      5-min Rain = 0
KMC1 191020Z 27002KT 03/01 A2998 RMK A01 T00250008  RH  088%=      5-min Rain = 0
KMC1 191021Z 27002KT 03/01 A2998 RMK A01 T00250007  RH  088%=      5-min Rain = 0
KMC1 191022Z 27002KT 02/01 A2998 RMK A01 T00240007  RH  089%=      5-min Rain = 0
KMC1 191023Z 26002KT 02/01 A2998 RMK A01 T00240007  RH  089%=      5-min Rain = 0
KMC1 191024Z 26002KT 02/01 A2998 RMK A01 T00230006  RH  089%=      5-min Rain = 0
KMC1 191025Z 25002KT 02/01 A2998 RMK A01 T00230006  RH  089%=      5-min Rain = 0
KMC1 191026Z 25002KT 02/01 A2998 RMK A01 T00220005  RH  089%=      5-min Rain = 0
KMC1 191027Z 24003KT 02/00 A2998 RMK A01 T00210004  RH  089%=      5-min Rain = 0
KMC1 191028Z 24002KT 02/00 A2998 RMK A01 T00200004  RH  089%=      5-min Rain = 0
KMC1 191029Z 24002KT 02/00 A2998 RMK A01 T00200004  RH  089%=      5-min Rain = 0
KMC1 191030Z 24002KT 02/01 A2998 RMK A01 T00200005  RH  090%=      5-min Rain = 0
KMC1 191031Z 23002KT 02/01 A2998 RMK A01 T00200005  RH  090%=      5-min Rain = 0
KMC1 191032Z 23002KT 02/01 A2998 RMK A01 T00200006  RH  090%=      5-min Rain = 0
KMC1 191033Z 23002KT 02/01 A2998 RMK A01 T00200006  RH  090%=      5-min Rain = 0
KMC1 191034Z 23002KT 02/01 A2999 RMK A01 T00200006  RH  090%=      5-min Rain = 0
KMC1 191035Z 23002KT 02/01 A2999 RMK A01 T00200006  RH  091%=      5-min Rain = 0
KMC1 191036Z 22002KT 02/01 A2999 RMK A01 T00200005  RH  090%=      5-min Rain = 0
KMC1 191037Z 22003KT 02/01 A2999 RMK A01 T00190005  RH  090%=      5-min Rain = 0
KMC1 191038Z 22003KT 02/01 A2999 RMK A01 T00190005  RH  090%=      5-min Rain = 0
KMC1 191039Z 22003KT 02/00 A2999 RMK A01 T00190004  RH  090%=      5-min Rain = 0
KMC1 191040Z 22003KT 02/00 A2999 RMK A01 T00190004  RH  090%=      5-min Rain = 0
KMC1 191041Z 22003KT 02/00 A2999 RMK A01 T00190004  RH  090%=      5-min Rain = 0
KMC1 191042Z 23003KT 02/01 A2999 RMK A01 T00190005  RH  090%=      5-min Rain = 0
KMC1 191043Z 23003KT 02/01 A2999 RMK A01 T00190006  RH  091%=      5-min Rain = 0
KMC1 191044Z 23003KT 02/01 A2999 RMK A01 T00200006  RH  091%=      5-min Rain = 0
KMC1 191045Z 23003KT 02/01 A2999 RMK A01 T00200006  RH  090%=      5-min Rain = 0
KMC1 191046Z 23003KT 02/01 A2999 RMK A01 T00200006  RH  091%=      5-min Rain = 0
KMC1 191047Z 23002KT 02/01 A2999 RMK A01 T00210008  RH  091%=      5-min Rain = 0
KMC1 191048Z 23002KT 02/01 A2999 RMK A01 T00210009  RH  092%=      5-min Rain = 0
KMC1 191049Z 24002KT 02/01 A2999 RMK A01 T00220011  RH  092%=      5-min Rain = 0
KMC1 191050Z 24002KT 02/01 A2999 RMK A01 T00230012  RH  092%=      5-min Rain = 0
KMC1 191051Z 24002KT 02/01 A2999 RMK A01 T00240013  RH  093%=      5-min Rain = 0
KMC1 191052Z 24002KT 03/02 A2999 RMK A01 T00250015  RH  093%=      5-min Rain = 0
KMC1 191053Z 24002KT 03/02 A2999 RMK A01 T00260015  RH  093%=      5-min Rain = 0
KMC1 191054Z 25002KT 03/02 A2999 RMK A01 T00270016  RH  093%=      5-min Rain = 0
KMC1 191055Z 25002KT 03/02 A2999 RMK A01 T00270017  RH  093%=      5-min Rain = 0
KMC1 191056Z 24002KT 03/02 A2999 RMK A01 T00270016  RH  093%=      5-min Rain = 0
KMC1 191057Z 25001KT 03/02 A2999 RMK A01 T00280017  RH  093%=      5-min Rain = 0
KMC1 191058Z 25001KT 03/02 A2999 RMK A01 T00280017  RH  093%=      5-min Rain = 0
KMC1 191059Z 25002KT 03/02 A2999 RMK A01 T00290019  RH  093%=      5-min Rain = 0
KMC1 191100Z 25001KT 03/02 A2999 RMK A01 T00290018  RH  093%=      5-min Rain = 0
KMC1 191101Z 25001KT 03/02 A2999 RMK A01 T00290018  RH  092%=      5-min Rain = 0
KMC1 191102Z 25001KT 03/02 A2999 RMK A01 T00300018  RH  092%=      5-min Rain = 0
KMC1 191103Z 25001KT 03/02 A2999 RMK A01 T00300017  RH  092%=      5-min Rain = 0
KMC1 191104Z 25001KT 03/02 A2999 RMK A01 T00300017  RH  091%=      5-min Rain = 0
KMC1 191105Z 26001KT 03/02 A2999 RMK A01 T00300015  RH  090%=      5-min Rain = 0
KMC1 191106Z 26001KT 03/01 A2999 RMK A01 T00290014  RH  089%=      5-min Rain = 0
KMC1 191107Z 26001KT 03/01 A2998 RMK A01 T00290012  RH  089%=      5-min Rain = 0
KMC1 191108Z 26001KT 03/01 A2998 RMK A01 T00280011  RH  088%=      5-min Rain = 0
KMC1 191109Z 26001KT 03/01 A2998 RMK A01 T00280010  RH  088%=      5-min Rain = 0
KMC1 191110Z 26001KT 03/01 A2998 RMK A01 T00280010  RH  088%=      5-min Rain = 0
KMC1 191111Z 26001KT 03/01 A2998 RMK A01 T00270009  RH  088%=      5-min Rain = 0
KMC1 191112Z 24000KT 03/01 A2998 RMK A01 T00270009  RH  088%=      5-min Rain = 0
KMC1 191113Z 24001KT 03/01 A2998 RMK A01 T00260010  RH  089%=      5-min Rain = 0
KMC1 191114Z 24001KT 03/01 A2998 RMK A01 T00260010  RH  089%=      5-min Rain = 0
KMC1 191115Z 24002KT 03/01 A2999 RMK A01 T00260012  RH  090%=      5-min Rain = 0
KMC1 191116Z 24002KT 03/01 A2999 RMK A01 T00260013  RH  091%=      5-min Rain = 0
KMC1 191117Z 24002KT 03/01 A2999 RMK A01 T00260014  RH  092%=      5-min Rain = 0
KMC1 191118Z 24003KT 03/01 A2998 RMK A01 T00260014  RH  091%=      5-min Rain = 0
KMC1 191119Z 24003KT 03/01 A2999 RMK A01 T00260013  RH  091%=      5-min Rain = 0
KMC1 191120Z 24003KT 03/01 A2999 RMK A01 T00250010  RH  090%=      5-min Rain = 0
KMC1 191121Z 25003KT 02/01 A2999 RMK A01 T00240009  RH  090%=      5-min Rain = 0
KMC1 191122Z 25003KT 02/01 A2999 RMK A01 T00230010  RH  091%=      5-min Rain = 0
KMC1 191123Z 25003KT 02/01 A2999 RMK A01 T00230011  RH  091%=      5-min Rain = 0
KMC1 191124Z 26003KT 02/01 A2999 RMK A01 T00240012  RH  092%=      5-min Rain = 0
KMC1 191125Z 25002KT 02/01 A2999 RMK A01 T00240012  RH  092%=      5-min Rain = 0
KMC1 191126Z 25002KT 02/01 A2999 RMK A01 T00230012  RH  092%=      5-min Rain = 0
KMC1 191127Z 26002KT 02/01 A2999 RMK A01 T00230011  RH  092%=      5-min Rain = 0
KMC1 191128Z 26002KT 02/01 A2999 RMK A01 T00220010  RH  092%=      5-min Rain = 0
KMC1 191129Z 26002KT 02/01 A2999 RMK A01 T00220009  RH  092%=      5-min Rain = 0
KMC1 191130Z 26002KT 02/01 A2999 RMK A01 T00210009  RH  091%=      5-min Rain = 0
KMC1 191131Z 26002KT 02/01 A2999 RMK A01 T00210008  RH  091%=      5-min Rain = 0
KMC1 191132Z 26002KT 02/01 A2999 RMK A01 T00210008  RH  091%=      5-min Rain = 0
KMC1 191133Z 26002KT 02/01 A2999 RMK A01 T00210008  RH  091%=      5-min Rain = 0
KMC1 191134Z 26002KT 02/01 A2999 RMK A01 T00200008  RH  092%=      5-min Rain = 0
KMC1 191135Z 27002KT 02/01 A2999 RMK A01 T00200008  RH  092%=      5-min Rain = 0
KMC1 191136Z 26002KT 02/01 A2999 RMK A01 T00200009  RH  092%=      5-min Rain = 0
KMC1 191137Z 26002KT 02/01 A2999 RMK A01 T00200009  RH  092%=      5-min Rain = 0
KMC1 191138Z 26002KT 02/01 A2999 RMK A01 T00200009  RH  092%=      5-min Rain = 0
KMC1 191139Z 26002KT 02/01 A2999 RMK A01 T00200009  RH  092%=      5-min Rain = 0
KMC1 191140Z 25002KT 02/01 A2999 RMK A01 T00200009  RH  092%=      5-min Rain = 0
KMC1 191141Z 25003KT 02/01 A2999 RMK A01 T00200008  RH  092%=      5-min Rain = 0
KMC1 191142Z 26003KT 02/01 A2999 RMK A01 T00190007  RH  092%=      5-min Rain = 0
KMC1 191143Z 25003KT 02/01 A2999 RMK A01 T00190007  RH  092%=      5-min Rain = 0
KMC1 191144Z 25003KT 02/01 A2999 RMK A01 T00190007  RH  092%=      5-min Rain = 0
KMC1 191145Z 25003KT 02/01 A2999 RMK A01 T00180007  RH  092%=      5-min Rain = 0
KMC1 191146Z 25003KT 02/01 A2999 RMK A01 T00180008  RH  093%=      5-min Rain = 0
KMC1 191147Z 25002KT 02/01 A2999 RMK A01 T00180008  RH  093%=      5-min Rain = 0
KMC1 191148Z 25002KT 02/01 A2999 RMK A01 T00180008  RH  093%=      5-min Rain = 0
KMC1 191149Z 26002KT 02/01 A2999 RMK A01 T00190010  RH  093%=      5-min Rain = 0
KMC1 191150Z 26002KT 02/01 A2999 RMK A01 T00190009  RH  094%=      5-min Rain = 0
KMC1 191151Z 26003KT 02/01 A2999 RMK A01 T00190010  RH  094%=      5-min Rain = 0
KMC1 191152Z 26003KT 02/01 A2999 RMK A01 T00190009  RH  093%=      5-min Rain = 0
KMC1 191153Z 26003KT 02/01 A2999 RMK A01 T00190008  RH  093%=      5-min Rain = 0
KMC1 191154Z 26003KT 02/01 A2999 RMK A01 T00180007  RH  093%=      5-min Rain = 0
KMC1 191155Z 26003KT 02/01 A2999 RMK A01 T00170006  RH  092%=      5-min Rain = 0
KMC1 191156Z 26002KT 02/01 A2999 RMK A01 T00160005  RH  092%=      5-min Rain = 0
KMC1 191157Z 26002KT 02/00 A2999 RMK A01 T00160004  RH  092%=      5-min Rain = 0
KMC1 191158Z 26002KT 02/00 A2999 RMK A01 T00160004  RH  092%=      5-min Rain = 0
KMC1 191159Z 25002KT 02/00 A2999 RMK A01 T00150004  RH  092%=      5-min Rain = 0
KMC1 191200Z 24002KT 01/00 A2999 RMK A01 T00140003  RH  092%=      5-min Rain = 0
KMC1 191201Z 24002KT 01/00 A2999 RMK A01 T00140003  RH  093%=      5-min Rain = 0
KMC1 191202Z 24002KT 01/00 A2999 RMK A01 T00140004  RH  093%=      5-min Rain = 0
KMC1 191203Z 24002KT 01/00 A2999 RMK A01 T00140004  RH  093%=      5-min Rain = 0
KMC1 191204Z 24003KT 02/01 A2999 RMK A01 T00150005  RH  093%=      5-min Rain = 0
KMC1 191205Z 24002KT 01/00 A2999 RMK A01 T00140004  RH  093%=      5-min Rain = 0
KMC1 191206Z 25002KT 02/01 A2999 RMK A01 T00150005  RH  093%=      5-min Rain = 0
KMC1 191207Z 25002KT 02/01 A2999 RMK A01 T00150006  RH  094%=      5-min Rain = 0
KMC1 191208Z 25002KT 02/01 A2999 RMK A01 T00150007  RH  094%=      5-min Rain = 0
KMC1 191209Z 26002KT 02/01 A2999 RMK A01 T00150006  RH  094%=      5-min Rain = 0
KMC1 191210Z 25002KT 02/01 A2999 RMK A01 T00150005  RH  093%=      5-min Rain = 0
KMC1 191211Z 24002KT 02/01 A2999 RMK A01 T00150005  RH  093%=      5-min Rain = 0
KMC1 191212Z 24002KT 02/00 A2999 RMK A01 T00150004  RH  093%=      5-min Rain = 0
KMC1 191213Z 25002KT 02/00 A2999 RMK A01 T00150004  RH  092%=      5-min Rain = 0
KMC1 191214Z 25002KT 02/00 A2999 RMK A01 T00150003  RH  092%=      5-min Rain = 0
KMC1 191215Z 24002KT 01/00 A2999 RMK A01 T00140003  RH  092%=      5-min Rain = 0
KMC1 191216Z 24001KT 01/00 A2999 RMK A01 T00140003  RH  092%=      5-min Rain = 0
KMC1 191217Z 24001KT 01/00 A30 RMK A01 T00140003  RH  092%=      5-min Rain = 0
KMC1 191218Z 23001KT 01/00 A30 RMK A01 T00140003  RH  092%=      5-min Rain = 0
KMC1 191219Z 23001KT 01/00 A30 RMK A01 T00140003  RH  092%=      5-min Rain = 0
KMC1 191220Z 25002KT 01/00 A30 RMK A01 T00140002  RH  092%=      5-min Rain = 0
KMC1 191221Z 25001KT 01/00 A30 RMK A01 T00140002  RH  092%=      5-min Rain = 0
KMC1 191222Z 24001KT 01/00 A30 RMK A01 T00140003  RH  092%=      5-min Rain = 0
KMC1 191223Z 24001KT 01/00 A30 RMK A01 T00140002  RH  092%=      5-min Rain = 0
KMC1 191224Z 24001KT 01/00 A30 RMK A01 T00140002  RH  092%=      5-min Rain = 0
KMC1 191225Z 24001KT 01/00 A30 RMK A01 T00140002  RH  092%=      5-min Rain = 0
KMC1 191226Z 24001KT 01/00 A30 RMK A01 T00130002  RH  092%=      5-min Rain = 0
KMC1 191227Z 23001KT 01/00 A30 RMK A01 T00130002  RH  092%=      5-min Rain = 0
KMC1 191228Z 23001KT 01/00 A30 RMK A01 T00130001  RH  092%=      5-min Rain = 0
KMC1 191229Z 23001KT 01/00 A30 RMK A01 T00130001  RH  092%=      5-min Rain = 0
KMC1 191230Z 24001KT 01/00 A30 RMK A01 T00130002  RH  092%=      5-min Rain = 0
KMC1 191231Z 24001KT 01/00 A30 RMK A01 T00130002  RH  092%=      5-min Rain = 0
KMC1 191232Z 24001KT 01/00 A30 RMK A01 T00130002  RH  092%=      5-min Rain = 0
KMC1 191233Z 24001KT 01/00 A30 RMK A01 T00130002  RH  092%=      5-min Rain = 0
KMC1 191234Z 24001KT 01/00 A30 RMK A01 T00130002  RH  092%=      5-min Rain = 0
KMC1 191235Z 24001KT 01/00 A30 RMK A01 T00130003  RH  093%=      5-min Rain = 0
KMC1 191236Z 24001KT 01/00 A30 RMK A01 T00140004  RH  093%=      5-min Rain = 0
KMC1 191237Z 25001KT 01/00 A2999 RMK A01 T00140004  RH  093%=      5-min Rain = 0
KMC1 191238Z 25001KT 02/01 A2999 RMK A01 T00150005  RH  093%=      5-min Rain = 0
KMC1 191239Z 25001KT 02/01 A2999 RMK A01 T00160006  RH  093%=      5-min Rain = 0
KMC1 191240Z 25000KT 02/01 A30 RMK A01 T00170006  RH  093%=      5-min Rain = 0
KMC1 191241Z 00000KT 02/01 A30 RMK A01 T00170006  RH  093%=      5-min Rain = 0
KMC1 191242Z 00000KT 02/01 A30 RMK A01 T00170006  RH  092%=      5-min Rain = 0
KMC1 191243Z 00000KT 02/01 A30 RMK A01 T00170005  RH  092%=      5-min Rain = 0
KMC1 191244Z 00000KT 02/01 A30 RMK A01 T00160005  RH  092%=      5-min Rain = 0
KMC1 191245Z 00000KT 02/01 A30 RMK A01 T00160005  RH  092%=      5-min Rain = 0
KMC1 191246Z 00000KT 02/01 A30 RMK A01 T00160005  RH  092%=      5-min Rain = 0
KMC1 191247Z 00000KT 02/01 A30 RMK A01 T00160005  RH  092%=      5-min Rain = 0
KMC1 191248Z 00000KT 02/01 A30 RMK A01 T00160005  RH  092%=      5-min Rain = 0
KMC1 191249Z 00000KT 02/01 A30 RMK A01 T00160005  RH  092%=      5-min Rain = 0
KMC1 191250Z 00000KT 02/01 A30 RMK A01 T00160005  RH  092%=      5-min Rain = 0
KMC1 191251Z 00000KT 02/01 A30 RMK A01 T00160006  RH  093%=      5-min Rain = 0
KMC1 191252Z 00000KT 02/01 A30 RMK A01 T00160006  RH  093%=      5-min Rain = 0
KMC1 191253Z 00000KT 02/01 A30 RMK A01 T00160007  RH  094%=      5-min Rain = 0
KMC1 191254Z 00000KT 02/01 A30 RMK A01 T00170009  RH  094%=      5-min Rain = 0
KMC1 191255Z 00000KT 02/01 A30 RMK A01 T00180009  RH  094%=      5-min Rain = 0
KMC1 191256Z 00000KT 02/01 A30 RMK A01 T00170009  RH  094%=      5-min Rain = 0
KMC1 191257Z 00000KT 02/01 A30 RMK A01 T00180010  RH  095%=      5-min Rain = 0
KMC1 191258Z 00000KT 02/01 A30 RMK A01 T00180010  RH  094%=      5-min Rain = 0
KMC1 191259Z 00000KT 02/01 A30 RMK A01 T00180010  RH  094%=      5-min Rain = 0
KMC1 191300Z 00000KT 02/01 A30 RMK A01 T00190010  RH  094%=      5-min Rain = 0
KMC1 191301Z 00000KT 02/01 A30 RMK A01 T00200012  RH  095%=      5-min Rain = 0
KMC1 191302Z 00000KT 02/02 A30 RMK A01 T00220016  RH  096%=      5-min Rain = 0
KMC1 191303Z 00000KT 02/02 A30 RMK A01 T00230018  RH  096%=      5-min Rain = 0
KMC1 191304Z 00000KT 02/02 A30 RMK A01 T00240018  RH  096%=      5-min Rain = 0
KMC1 191305Z 00000KT 03/02 A30 RMK A01 T00250018  RH  095%=      5-min Rain = 0
KMC1 191306Z 00000KT 03/02 A30 RMK A01 T00250018  RH  095%=      5-min Rain = 0
KMC1 191307Z 00000KT 03/02 A30 RMK A01 T00260018  RH  095%=      5-min Rain = 0
KMC1 191308Z 00000KT 03/02 A30 RMK A01 T00260018  RH  095%=      5-min Rain = 0
KMC1 191309Z 00000KT 03/02 A30 RMK A01 T00260018  RH  094%=      5-min Rain = 0
KMC1 191310Z 00000KT 03/02 A30 RMK A01 T00260017  RH  094%=      5-min Rain = 0
KMC1 191311Z 00000KT 03/02 A30 RMK A01 T00260017  RH  094%=      5-min Rain = 0
KMC1 191312Z 00000KT 03/02 A30 RMK A01 T00250016  RH  094%=      5-min Rain = 0
KMC1 191313Z 00000KT 03/02 A30 RMK A01 T00250016  RH  093%=      5-min Rain = 0
KMC1 191314Z 00000KT 03/02 A30 RMK A01 T00250016  RH  093%=      5-min Rain = 0
KMC1 191315Z 00000KT 03/02 A30 RMK A01 T00250015  RH  093%=      5-min Rain = 0
KMC1 191316Z 00000KT 03/02 A30 RMK A01 T00250015  RH  093%=      5-min Rain = 0
KMC1 191317Z 00000KT 02/01 A30 RMK A01 T00230013  RH  093%=      5-min Rain = 0
KMC1 191318Z 00000KT 02/01 A30 RMK A01 T00230012  RH  093%=      5-min Rain = 0
KMC1 191319Z 00000KT 02/01 A30 RMK A01 T00220011  RH  092%=      5-min Rain = 0
KMC1 191320Z 00000KT 02/01 A30 RMK A01 T00220009  RH  092%=      5-min Rain = 0
KMC1 191321Z 00000KT 02/01 A30 RMK A01 T00210009  RH  092%=      5-min Rain = 0
KMC1 191322Z 00000KT 02/01 A30 RMK A01 T00210009  RH  092%=      5-min Rain = 0
KMC1 191323Z 00000KT 02/01 A30 RMK A01 T00200008  RH  092%=      5-min Rain = 0
KMC1 191324Z 00000KT 02/01 A30 RMK A01 T00200009  RH  092%=      5-min Rain = 0
KMC1 191325Z 00000KT 02/01 A30 RMK A01 T00210010  RH  093%=      5-min Rain = 0
KMC1 191326Z 00000KT 02/01 A30 RMK A01 T00210011  RH  093%=      5-min Rain = 0
KMC1 191327Z 00000KT 02/01 A30 RMK A01 T00210011  RH  093%=      5-min Rain = 0
KMC1 191328Z 00000KT 02/01 A3001 RMK A01 T00210011  RH  093%=      5-min Rain = 0
KMC1 191329Z 00000KT 02/01 A3001 RMK A01 T00210011  RH  093%=      5-min Rain = 0
KMC1 191330Z 00000KT 02/01 A3001 RMK A01 T00210011  RH  093%=      5-min Rain = 0
KMC1 191331Z 00000KT 02/01 A3001 RMK A01 T00200010  RH  093%=      5-min Rain = 0
KMC1 191332Z 00000KT 02/01 A3001 RMK A01 T00200010  RH  093%=      5-min Rain = 0
KMC1 191333Z 00000KT 02/01 A3001 RMK A01 T00200010  RH  093%=      5-min Rain = 0
KMC1 191334Z 00000KT 02/01 A3001 RMK A01 T00200010  RH  093%=      5-min Rain = 0
KMC1 191335Z 00000KT 02/01 A3001 RMK A01 T00200010  RH  093%=      5-min Rain = 0
KMC1 191336Z 00000KT 02/01 A3001 RMK A01 T00200010  RH  093%=      5-min Rain = 0
KMC1 191337Z 00000KT 02/01 A3001 RMK A01 T00200010  RH  093%=      5-min Rain = 0
KMC1 191338Z 00000KT 02/01 A3001 RMK A01 T00200010  RH  093%=      5-min Rain = 0
KMC1 191339Z 00000KT 02/01 A3001 RMK A01 T00200010  RH  093%=      5-min Rain = 0
KMC1 191340Z 00000KT 02/01 A3001 RMK A01 T00200010  RH  093%=      5-min Rain = 0
KMC1 191341Z 00000KT 02/01 A3001 RMK A01 T00200010  RH  093%=      5-min Rain = 0
KMC1 191342Z 00000KT 02/01 A3001 RMK A01 T00200010  RH  093%=      5-min Rain = 0
KMC1 191343Z 00000KT 02/01 A3001 RMK A01 T00210011  RH  093%=      5-min Rain = 0
KMC1 191344Z 00000KT 02/01 A3001 RMK A01 T00220012  RH  093%=      5-min Rain = 0
KMC1 191345Z 00000KT 02/01 A3001 RMK A01 T00220011  RH  092%=      5-min Rain = 0
KMC1 191346Z 00000KT 02/01 A3001 RMK A01 T00230011  RH  092%=      5-min Rain = 0
KMC1 191347Z 29001KT 02/01 A3001 RMK A01 T00240011  RH  092%=      5-min Rain = 0
KMC1 191348Z 29001KT 02/01 A3001 RMK A01 T00240011  RH  091%=      5-min Rain = 0
KMC1 191349Z 29001KT 03/01 A3001 RMK A01 T00250010  RH  090%=      5-min Rain = 0
KMC1 191350Z 29001KT 03/01 A3001 RMK A01 T00250010  RH  090%=      5-min Rain = 0
KMC1 191351Z 29001KT 03/01 A3001 RMK A01 T00250010  RH  090%=      5-min Rain = 0
KMC1 191352Z 29001KT 03/01 A3001 RMK A01 T00250010  RH  089%=      5-min Rain = 0
KMC1 191353Z 29001KT 03/01 A3001 RMK A01 T00260010  RH  089%=      5-min Rain = 0
KMC1 191354Z 29001KT 03/01 A3001 RMK A01 T00260011  RH  089%=      5-min Rain = 0
KMC1 191355Z 29000KT 03/01 A3001 RMK A01 T00270011  RH  089%=      5-min Rain = 0
KMC1 191356Z 29000KT 03/01 A3001 RMK A01 T00280011  RH  089%=      5-min Rain = 0
KMC1 191357Z 29000KT 03/01 A3001 RMK A01 T00290012  RH  089%=      5-min Rain = 0
KMC1 191358Z 29000KT 03/01 A3001 RMK A01 T00290012  RH  088%=      5-min Rain = 0
KMC1 191359Z 00000KT 03/01 A3001 RMK A01 T00300013  RH  089%=      5-min Rain = 0
KMC1 191400Z 29000KT 03/01 A3001 RMK A01 T00310014  RH  089%=      5-min Rain = 0
KMC1 191401Z 29001KT 03/01 A3001 RMK A01 T00300012  RH  088%=      5-min Rain = 0
KMC1 191402Z 29001KT 03/01 A3001 RMK A01 T00310012  RH  088%=      5-min Rain = 0
KMC1 191403Z 29001KT 03/01 A3001 RMK A01 T00310012  RH  087%=      5-min Rain = 0
KMC1 191404Z 28002KT 03/01 A3001 RMK A01 T00310012  RH  087%=      5-min Rain = 0
KMC1 191405Z 28002KT 03/01 A3001 RMK A01 T00320012  RH  087%=      5-min Rain = 0
KMC1 191406Z 28002KT 03/01 A3001 RMK A01 T00320012  RH  087%=      5-min Rain = 0
KMC1 191407Z 28002KT 03/01 A3001 RMK A01 T00320012  RH  087%=      5-min Rain = 0
KMC1 191408Z 28002KT 03/01 A3001 RMK A01 T00320011  RH  086%=      5-min Rain = 0
KMC1 191409Z 29001KT 03/01 A3001 RMK A01 T00320011  RH  086%=      5-min Rain = 0
KMC1 191410Z 28001KT 03/01 A3001 RMK A01 T00320011  RH  086%=      5-min Rain = 0
KMC1 191411Z 28001KT 03/01 A3001 RMK A01 T00320012  RH  087%=      5-min Rain = 0
KMC1 191412Z 28001KT 03/01 A3001 RMK A01 T00320012  RH  087%=      5-min Rain = 0
KMC1 191413Z 28001KT 03/01 A3001 RMK A01 T00330013  RH  087%=      5-min Rain = 0
KMC1 191414Z 29001KT 03/01 A3001 RMK A01 T00330013  RH  087%=      5-min Rain = 0
KMC1 191415Z 29001KT 03/01 A3001 RMK A01 T00330013  RH  087%=      5-min Rain = 0
KMC1 191416Z 29001KT 03/01 A3002 RMK A01 T00340012  RH  086%=      5-min Rain = 0
KMC1 191417Z 29001KT 03/01 A3002 RMK A01 T00340012  RH  086%=      5-min Rain = 0
KMC1 191418Z 30002KT 03/01 A3002 RMK A01 T00340012  RH  086%=      5-min Rain = 0
KMC1 191419Z 29001KT 04/01 A3002 RMK A01 T00350014  RH  086%=      5-min Rain = 0
KMC1 191420Z 29001KT 04/02 A3002 RMK A01 T00350015  RH  086%=      5-min Rain = 0
KMC1 191421Z 31001KT 04/02 A3002 RMK A01 T00360015  RH  086%=      5-min Rain = 0
KMC1 191422Z 30001KT 04/01 A3002 RMK A01 T00360014  RH  086%=      5-min Rain = 0
KMC1 191423Z 31001KT 04/01 A3002 RMK A01 T00360014  RH  086%=      5-min Rain = 0
KMC1 191424Z 30001KT 04/02 A3002 RMK A01 T00360015  RH  086%=      5-min Rain = 0
KMC1 191425Z 30001KT 04/02 A3002 RMK A01 T00370016  RH  086%=      5-min Rain = 0
KMC1 191426Z 29001KT 04/02 A3002 RMK A01 T00380017  RH  086%=      5-min Rain = 0
KMC1 191427Z 30001KT 04/02 A3002 RMK A01 T00390017  RH  086%=      5-min Rain = 0
KMC1 191428Z 30001KT 04/02 A3002 RMK A01 T00400018  RH  086%=      5-min Rain = 0
KMC1 191429Z 30001KT 04/02 A3002 RMK A01 T00410018  RH  085%=      5-min Rain = 0
KMC1 191430Z 30001KT 04/02 A3002 RMK A01 T00410018  RH  085%=      5-min Rain = 0
KMC1 191431Z 28000KT 04/02 A3002 RMK A01 T00420019  RH  085%=      5-min Rain = 0
KMC1 191432Z 30000KT 04/02 A3002 RMK A01 T00430020  RH  085%=      5-min Rain = 0
KMC1 191433Z 31000KT 04/02 A3002 RMK A01 T00440023  RH  086%=      5-min Rain = 0
KMC1 191434Z 32001KT 05/02 A3002 RMK A01 T00460024  RH  086%=      5-min Rain = 0
KMC1 191435Z 32001KT 05/03 A3002 RMK A01 T00470025  RH  086%=      5-min Rain = 0
KMC1 191436Z 33000KT 05/03 A3002 RMK A01 T00490028  RH  086%=      5-min Rain = 0
KMC1 191437Z 32000KT 05/03 A3002 RMK A01 T00510028  RH  085%=      5-min Rain = 0
KMC1 191438Z 32000KT 05/03 A3002 RMK A01 T00530030  RH  085%=      5-min Rain = 0
KMC1 191439Z 32001KT 06/03 A3002 RMK A01 T00550032  RH  085%=      5-min Rain = 0
KMC1 191440Z 32001KT 06/03 A3002 RMK A01 T00570033  RH  084%=      5-min Rain = 0
KMC1 191441Z 33001KT 06/03 A3002 RMK A01 T00580032  RH  083%=      5-min Rain = 0
KMC1 191442Z 32001KT 06/03 A3002 RMK A01 T00600033  RH  083%=      5-min Rain = 0
KMC1 191443Z 31001KT 06/03 A3002 RMK A01 T00610034  RH  083%=      5-min Rain = 0
KMC1 191444Z 32000KT 06/03 A3002 RMK A01 T00620034  RH  082%=      5-min Rain = 0
KMC1 191445Z 33000KT 06/04 A3002 RMK A01 T00630035  RH  082%=      5-min Rain = 0
KMC1 191446Z 00000KT 06/04 A3002 RMK A01 T00640036  RH  082%=      5-min Rain = 0
KMC1 191447Z 00000KT 07/04 A3002 RMK A01 T00650036  RH  082%=      5-min Rain = 0
KMC1 191448Z 00000KT 07/04 A3002 RMK A01 T00660038  RH  082%=      5-min Rain = 0
KMC1 191449Z 00000KT 07/04 A3002 RMK A01 T00670037  RH  081%=      5-min Rain = 0
KMC1 191450Z 00000KT 07/04 A3002 RMK A01 T00680037  RH  081%=      5-min Rain = 0
KMC1 191451Z 00000KT 07/04 A3002 RMK A01 T00690038  RH  081%=      5-min Rain = 0
KMC1 191452Z 27000KT 07/04 A3002 RMK A01 T00700039  RH  081%=      5-min Rain = 0
KMC1 191453Z 27001KT 07/04 A3002 RMK A01 T00710039  RH  080%=      5-min Rain = 0
KMC1 191454Z 29001KT 07/04 A3002 RMK A01 T00720039  RH  080%=      5-min Rain = 0
KMC1 191455Z 29001KT 07/04 A3002 RMK A01 T00730039  RH  079%=      5-min Rain = 0
KMC1 191456Z 30001KT 07/04 A3002 RMK A01 T00740041  RH  079%=      5-min Rain = 0
KMC1 191457Z 30001KT 08/04 A3002 RMK A01 T00750041  RH  079%=      5-min Rain = 0
KMC1 191458Z 30001KT 08/04 A3002 RMK A01 T00770043  RH  079%=      5-min Rain = 0
KMC1 191459Z 30001KT 08/04 A3002 RMK A01 T00770042  RH  078%=      5-min Rain = 0
KMC1 191500Z 30001KT 08/04 A3002 RMK A01 T00780041  RH  078%=      5-min Rain = 0
KMC1 191501Z 29001KT 08/04 A3002 RMK A01 T00780043  RH  078%=      5-min Rain = 0
KMC1 191502Z 28001KT 08/04 A3002 RMK A01 T00780043  RH  078%=      5-min Rain = 0
KMC1 191503Z 29001KT 08/04 A3002 RMK A01 T00790043  RH  078%=      5-min Rain = 0
KMC1 191504Z 28001KT 08/04 A3002 RMK A01 T00800044  RH  078%=      5-min Rain = 0
KMC1 191505Z 29001KT 08/05 A3002 RMK A01 T00810045  RH  078%=      5-min Rain = 0
KMC1 191506Z 29001KT 08/05 A3002 RMK A01 T00820046  RH  078%=      5-min Rain = 0
KMC1 191507Z 30001KT 08/05 A3002 RMK A01 T00830047  RH  078%=      5-min Rain = 0
KMC1 191508Z 29001KT 08/05 A3002 RMK A01 T00840046  RH  077%=      5-min Rain = 0
KMC1 191509Z 30001KT 09/05 A3002 RMK A01 T00850046  RH  076%=      5-min Rain = 0
KMC1 191510Z 30001KT 09/05 A3002 RMK A01 T00860049  RH  077%=      5-min Rain = 0
KMC1 191511Z 28000KT 09/05 A3002 RMK A01 T00880050  RH  077%=      5-min Rain = 0
KMC1 191512Z 29001KT 09/05 A3002 RMK A01 T00890049  RH  076%=      5-min Rain = 0
KMC1 191513Z 30000KT 09/05 A3002 RMK A01 T00900049  RH  076%=      5-min Rain = 0
KMC1 191514Z 31001KT 09/05 A3002 RMK A01 T00910052  RH  077%=      5-min Rain = 0
KMC1 191515Z 32000KT 09/06 A3002 RMK A01 T00920055  RH  078%=      5-min Rain = 0
KMC1 191516Z 00000KT 09/06 A3002 RMK A01 T00930055  RH  077%=      5-min Rain = 0
KMC1 191517Z 00000KT 10/06 A3002 RMK A01 T00950056  RH  076%=      5-min Rain = 0
KMC1 191518Z 32000KT 10/06 A3002 RMK A01 T00960057  RH  077%=      5-min Rain = 0
KMC1 191519Z 00000KT 10/06 A3002 RMK A01 T00970057  RH  076%=      5-min Rain = 0
KMC1 191520Z 29000KT 10/06 A3002 RMK A01 T01000061  RH  077%=      5-min Rain = 0
KMC1 191521Z 28000KT 10/06 A3002 RMK A01 T01020061  RH  076%=      5-min Rain = 0
KMC1 191522Z 27000KT 10/06 A3002 RMK A01 T01030061  RH  075%=      5-min Rain = 0
KMC1 191523Z 00000KT 10/06 A3002 RMK A01 T01040062  RH  075%=      5-min Rain = 0
KMC1 191524Z 00000KT 11/06 A3002 RMK A01 T01050063  RH  075%=      5-min Rain = 0
KMC1 191525Z 00000KT 11/06 A3002 RMK A01 T01060063  RH  075%=      5-min Rain = 0
KMC1 191526Z 23000KT 11/06 A3003 RMK A01 T01070063  RH  074%=      5-min Rain = 0
KMC1 191527Z 23000KT 11/06 A3003 RMK A01 T01070063  RH  074%=      5-min Rain = 0
KMC1 191528Z 23000KT 11/06 A3003 RMK A01 T01080063  RH  074%=      5-min Rain = 0
KMC1 191529Z 26000KT 11/07 A3003 RMK A01 T01100065  RH  074%=      5-min Rain = 0
KMC1 191530Z 22000KT 11/07 A3003 RMK A01 T01120067  RH  074%=      5-min Rain = 0
KMC1 191531Z 00000KT 11/07 A3003 RMK A01 T01140069  RH  074%=      5-min Rain = 0
KMC1 191532Z 00000KT 12/07 A3003 RMK A01 T01150068  RH  073%=      5-min Rain = 0
KMC1 191533Z 00000KT 12/07 A3003 RMK A01 T01160068  RH  072%=      5-min Rain = 0
KMC1 191534Z 30000KT 12/07 A3003 RMK A01 T01180069  RH  072%=      5-min Rain = 0
KMC1 191535Z 00000KT 12/07 A3003 RMK A01 T01190067  RH  071%=      5-min Rain = 0
KMC1 191536Z 27000KT 12/07 A3003 RMK A01 T01200068  RH  071%=      5-min Rain = 0
KMC1 191537Z 30000KT 12/07 A3003 RMK A01 T01200069  RH  071%=      5-min Rain = 0
KMC1 191538Z 29000KT 12/07 A3003 RMK A01 T01210071  RH  071%=      5-min Rain = 0
KMC1 191539Z 29001KT 12/07 A3003 RMK A01 T01230072  RH  071%=      5-min Rain = 0
KMC1 191540Z 31001KT 13/07 A3003 RMK A01 T01250073  RH  071%=      5-min Rain = 0
KMC1 191541Z 00000KT 13/07 A3003 RMK A01 T01260073  RH  070%=      5-min Rain = 0
KMC1 191542Z 30000KT 13/08 A3003 RMK A01 T01290076  RH  070%=      5-min Rain = 0
KMC1 191543Z 35000KT 13/08 A3003 RMK A01 T01310076  RH  069%=      5-min Rain = 0
KMC1 191544Z 00000KT 13/08 A3003 RMK A01 T01330078  RH  069%=      5-min Rain = 0
KMC1 191545Z 00000KT 14/08 A3003 RMK A01 T01360078  RH  068%=      5-min Rain = 0
KMC1 191546Z 35000KT 14/08 A3003 RMK A01 T01400082  RH  068%=      5-min Rain = 0
KMC1 191547Z 33000KT 14/08 A3003 RMK A01 T01430083  RH  067%=      5-min Rain = 0
KMC1 191548Z 34001KT 15/08 A3003 RMK A01 T01450082  RH  066%=      5-min Rain = 0
KMC1 191549Z 01000KT 15/08 A3003 RMK A01 T01460083  RH  066%=      5-min Rain = 0
KMC1 191550Z 00001KT 15/08 A3003 RMK A01 T01480083  RH  065%=      5-min Rain = 0
KMC1 191551Z 30000KT 15/08 A3003 RMK A01 T01490083  RH  065%=      5-min Rain = 0
KMC1 191552Z 31000KT 15/08 A3003 RMK A01 T01500084  RH  065%=      5-min Rain = 0
KMC1 191553Z 30001KT 15/08 A3003 RMK A01 T01500084  RH  065%=      5-min Rain = 0
KMC1 191554Z 30001KT 15/09 A3003 RMK A01 T01510085  RH  065%=      5-min Rain = 0
KMC1 191555Z 34001KT 15/09 A3003 RMK A01 T01510086  RH  065%=      5-min Rain = 0
KMC1 191556Z 34001KT 15/09 A3003 RMK A01 T01520086  RH  065%=      5-min Rain = 0
KMC1 191557Z 31000KT 15/09 A3003 RMK A01 T01530087  RH  065%=      5-min Rain = 0
KMC1 191558Z 00000KT 15/09 A3003 RMK A01 T01540087  RH  065%=      5-min Rain = 0
KMC1 191559Z 06001KT 16/09 A3003 RMK A01 T01550087  RH  064%=      5-min Rain = 0
KMC1 191600Z 05001KT 16/09 A3003 RMK A01 T01560088  RH  064%=      5-min Rain = 0
KMC1 191601Z 05002KT 16/09 A3003 RMK A01 T01580090  RH  064%=      5-min Rain = 0
KMC1 191602Z 05000KT 16/09 A3003 RMK A01 T01600091  RH  064%=      5-min Rain = 0
KMC1 191603Z 03000KT 16/09 A3003 RMK A01 T01620092  RH  063%=      5-min Rain = 0
KMC1 191604Z 00000KT 16/09 A3003 RMK A01 T01640093  RH  063%=      5-min Rain = 0
KMC1 191605Z 35000KT 17/09 A3003 RMK A01 T01660094  RH  062%=      5-min Rain = 0
KMC1 191606Z 00001KT 17/09 A3003 RMK A01 T01680093  RH  061%=      5-min Rain = 0
KMC1 191607Z 02000KT 17/10 A3003 RMK A01 T01700095  RH  061%=      5-min Rain = 0
KMC1 191608Z 23001KT 17/10 A3003 RMK A01 T01720096  RH  061%=      5-min Rain = 0
KMC1 191609Z 18002KT 17/09 A3003 RMK A01 T01740094  RH  059%=      5-min Rain = 0
KMC1 191610Z 22001KT 18/10 A3003 RMK A01 T01760097  RH  060%=      5-min Rain = 0
KMC1 191611Z 27002KT 18/10 A3003 RMK A01 T01790098  RH  059%=      5-min Rain = 0
KMC1 191612Z 23002KT 18/10 A3003 RMK A01 T01800096  RH  058%=      5-min Rain = 0
KMC1 191613Z 20001KT 18/10 A3003 RMK A01 T01800097  RH  058%=      5-min Rain = 0
KMC1 191614Z 18002KT 18/10 A3003 RMK A01 T01840100  RH  058%=      5-min Rain = 0
KMC1 191615Z 18007KT 19/10 A3003 RMK A01 T01880097  RH  055%=      5-min Rain = 0
KMC1 191616Z 19005KT 19/10 A3003 RMK A01 T01920097  RH  054%=      5-min Rain = 0
KMC1 191617Z 19005KT 20/10 A3003 RMK A01 T01950099  RH  054%=      5-min Rain = 0
KMC1 191618Z 18005KT 20/10 A3003 RMK A01 T01970097  RH  052%=      5-min Rain = 0
KMC1 191619Z 19007KT 20/10 A3003 RMK A01 T02000097  RH  051%=      5-min Rain = 0
KMC1 191620Z 21006KT 20/10 A3003 RMK A01 T02010097  RH  051%=      5-min Rain = 0
KMC1 191621Z 21005KT 20/10 A3003 RMK A01 T02010097  RH  051%=      5-min Rain = 0
KMC1 191622Z 19006KT 20/10 A3003 RMK A01 T02020096  RH  051%=      5-min Rain = 0
KMC1 191623Z 16006KT 20/10 A3003 RMK A01 T02030096  RH  050%=      5-min Rain = 0
KMC1 191624Z 18005KT 20/09 A3003 RMK A01 T02040094  RH  049%=      5-min Rain = 0
KMC1 191625Z 18007KT 21/10 A3003 RMK A01 T02060096  RH  049%=      5-min Rain = 0
KMC1 191626Z 17007KT 21/10 A3003 RMK A01 T02060095  RH  049%=      5-min Rain = 0
KMC1 191627Z 18007KT 21/10 A3003 RMK A01 T02080096  RH  049%=      5-min Rain = 0
KMC1 191628Z 19008KT 21/09 A3003 RMK A01 T02090094  RH  048%=      5-min Rain = 0
KMC1 191629Z 20008KT 21/10 A3003 RMK A01 T02090095  RH  048%=      5-min Rain = 0
KMC1 191630Z 19008KT 21/10 A3003 RMK A01 T02090096  RH  048%=      5-min Rain = 0
KMC1 191631Z 19007KT 21/10 A3003 RMK A01 T02090096  RH  048%=      5-min Rain = 0
KMC1 191632Z 18005KT 21/10 A3003 RMK A01 T02090097  RH  049%=      5-min Rain = 0
KMC1 191633Z 18005KT 21/10 A3003 RMK A01 T02090097  RH  049%=      5-min Rain = 0
KMC1 191634Z 18008KT 21/10 A3003 RMK A01 T02090096  RH  048%=      5-min Rain = 0
KMC1 191635Z 18007KT 21/10 A3003 RMK A01 T02090095  RH  048%=      5-min Rain = 0
KMC1 191636Z 19010KT 21/10 A3003 RMK A01 T02090096  RH  049%=      5-min Rain = 0
KMC1 191637Z 19007KT 21/10 A3003 RMK A01 T02070096  RH  049%=      5-min Rain = 0
KMC1 191638Z 20006KT 21/10 A3003 RMK A01 T02070096  RH  049%=      5-min Rain = 0
KMC1 191639Z 19005KT 21/10 A3003 RMK A01 T02080097  RH  049%=      5-min Rain = 0
KMC1 191640Z 19005KT 21/10 A3003 RMK A01 T02100098  RH  049%=      5-min Rain = 0
KMC1 191641Z 18004KT 21/10 A3003 RMK A01 T02120100  RH  049%=      5-min Rain = 0
KMC1 191642Z 16006KT 21/10 A3002 RMK A01 T02140098  RH  048%=      5-min Rain = 0
KMC1 191643Z 17008KT 21/10 A3003 RMK A01 T02140097  RH  047%=      5-min Rain = 0
KMC1 191644Z 17009KT 21/10 A3002 RMK A01 T02130097  RH  047%=      5-min Rain = 0
KMC1 191645Z 18007KT 21/10 A3002 RMK A01 T02120098  RH  048%=      5-min Rain = 0
KMC1 191646Z 18006KT 21/10 A3002 RMK A01 T02130098  RH  048%=      5-min Rain = 0
KMC1 191647Z 17007KT 21/10 A3002 RMK A01 T02140097  RH  047%=      5-min Rain = 0
KMC1 191648Z 18007KT 21/10 A3002 RMK A01 T02140098  RH  048%=      5-min Rain = 0
KMC1 191649Z 17007KT 22/10 A3002 RMK A01 T02150097  RH  047%=      5-min Rain = 0
KMC1 191650Z 17006KT 22/10 A3002 RMK A01 T02150098  RH  047%=      5-min Rain = 0
KMC1 191651Z 19006KT 22/10 A3002 RMK A01 T02170099  RH  047%=      5-min Rain = 0
KMC1 191652Z 18006KT 22/10 A3002 RMK A01 T02180097  RH  046%=      5-min Rain = 0
KMC1 191653Z 17010KT 22/10 A3002 RMK A01 T02190097  RH  046%=      5-min Rain = 0
KMC1 191654Z 18008KT 22/10 A3002 RMK A01 T02190095  RH  045%=      5-min Rain = 0
KMC1 191655Z 19006KT 22/10 A3002 RMK A01 T02180096  RH  046%=      5-min Rain = 0
KMC1 191656Z 18007KT 22/10 A3002 RMK A01 T02190097  RH  046%=      5-min Rain = 0
KMC1 191657Z 18008KT 22/10 A3002 RMK A01 T02200095  RH  045%=      5-min Rain = 0
KMC1 191658Z 18010KT 22/10 A3002 RMK A01 T02200095  RH  045%=      5-min Rain = 0
KMC1 191659Z 17010KT 22/09 A3002 RMK A01 T02200094  RH  045%=      5-min Rain = 0
KMC1 191700Z 17010G15KT 22/10 A3002 RMK A01 T02190095  RH  045%=      5-min Rain = 0
KMC1 191701Z 18008KT 22/10 A3002 RMK A01 T02210096  RH  045%=      5-min Rain = 0
KMC1 191702Z 18010KT 22/10 A3002 RMK A01 T02220095  RH  044%=      5-min Rain = 0
KMC1 191703Z 17010KT 22/09 A3002 RMK A01 T02230094  RH  044%=      5-min Rain = 0
KMC1 191704Z 17008KT 22/09 A3002 RMK A01 T02230092  RH  043%=      5-min Rain = 0
KMC1 191705Z 17006KT 22/09 A3002 RMK A01 T02210093  RH  044%=      5-min Rain = 0
KMC1 191706Z 16008KT 22/09 A3002 RMK A01 T02200094  RH  045%=      5-min Rain = 0
KMC1 191707Z 17008KT 22/09 A3002 RMK A01 T02200094  RH  044%=      5-min Rain = 0
KMC1 191708Z 17008KT 22/10 A3002 RMK A01 T02220095  RH  045%=      5-min Rain = 0
KMC1 191709Z 18010KT 22/09 A3001 RMK A01 T02220094  RH  044%=      5-min Rain = 0
KMC1 191710Z 19006KT 22/09 A3001 RMK A01 T02210093  RH  044%=      5-min Rain = 0
KMC1 191711Z 19007KT 22/09 A3001 RMK A01 T02190093  RH  045%=      5-min Rain = 0
KMC1 191712Z 19006KT 22/10 A3001 RMK A01 T02180095  RH  046%=      5-min Rain = 0
KMC1 191713Z 17008KT 22/10 A3001 RMK A01 T02190095  RH  045%=      5-min Rain = 0
KMC1 191714Z 16008KT 22/09 A3001 RMK A01 T02190092  RH  044%=      5-min Rain = 0
KMC1 191715Z 16007KT 22/09 A3001 RMK A01 T02190093  RH  044%=      5-min Rain = 0
KMC1 191716Z 19006KT 22/09 A3001 RMK A01 T02190093  RH  045%=      5-min Rain = 0
KMC1 191717Z 20007KT 22/09 A3001 RMK A01 T02210094  RH  044%=      5-min Rain = 0
KMC1 191718Z 19007KT 22/09 A3001 RMK A01 T02220094  RH  044%=      5-min Rain = 0
KMC1 191719Z 20007KT 22/09 A3001 RMK A01 T02220094  RH  044%=      5-min Rain = 0
KMC1 191720Z 20006KT 22/10 A3001 RMK A01 T02220095  RH  045%=      5-min Rain = 0
KMC1 191721Z 20006KT 22/09 A3001 RMK A01 T02220094  RH  044%=      5-min Rain = 0
KMC1 191722Z 19006KT 22/10 A3001 RMK A01 T02220096  RH  045%=      5-min Rain = 0
KMC1 191723Z 18004KT 22/10 A3001 RMK A01 T02230098  RH  045%=      5-min Rain = 0
KMC1 191724Z 18005G11KT 22/10 A3001 RMK A01 T02240098  RH  045%=      5-min Rain = 0
KMC1 191725Z 16010KT 22/10 A3001 RMK A01 T02240097  RH  044%=      5-min Rain = 0
KMC1 191726Z 17008KT 22/10 A30 RMK A01 T02240096  RH  044%=      5-min Rain = 0
KMC1 191727Z 17006KT 22/10 A30 RMK A01 T02220097  RH  045%=      5-min Rain = 0
KMC1 191728Z 17009KT 22/10 A30 RMK A01 T02220098  RH  045%=      5-min Rain = 0
KMC1 191729Z 17009KT 22/10 A30 RMK A01 T02230097  RH  045%=      5-min Rain = 0
KMC1 191730Z 17006KT 22/10 A30 RMK A01 T02230097  RH  044%=      5-min Rain = 0
KMC1 191731Z 15007KT 22/10 A30 RMK A01 T02230097  RH  045%=      5-min Rain = 0
KMC1 191732Z 17006KT 23/10 A30 RMK A01 T02250098  RH  044%=      5-min Rain = 0
KMC1 191733Z 16006KT 23/10 A30 RMK A01 T02270099  RH  044%=      5-min Rain = 0
KMC1 191734Z 16005KT 23/10 A30 RMK A01 T02290099  RH  044%=      5-min Rain = 0
KMC1 191735Z 17005KT 23/10 A30 RMK A01 T02310101  RH  044%=      5-min Rain = 0
KMC1 191736Z 15007KT 23/10 A30 RMK A01 T02320099  RH  043%=      5-min Rain = 0
KMC1 191737Z 15006KT 23/10 A30 RMK A01 T02320096  RH  042%=      5-min Rain = 0
KMC1 191738Z 15009G16KT 23/10 A30 RMK A01 T02290095  RH  042%=      5-min Rain = 0
KMC1 191739Z 16010KT 23/10 A30 RMK A01 T02280097  RH  043%=      5-min Rain = 0
KMC1 191740Z 16007KT 23/10 A30 RMK A01 T02290096  RH  043%=      5-min Rain = 0
KMC1 191741Z 16007KT 23/10 A30 RMK A01 T02280096  RH  043%=      5-min Rain = 0
KMC1 191742Z 16007KT 23/10 A30 RMK A01 T02270096  RH  043%=      5-min Rain = 0
KMC1 191743Z 17007KT 23/10 A30 RMK A01 T02280096  RH  043%=      5-min Rain = 0
KMC1 191744Z 17007KT 23/10 A30 RMK A01 T02310096  RH  042%=      5-min Rain = 0
KMC1 191745Z 18004KT 23/10 A30 RMK A01 T02320097  RH  042%=      5-min Rain = 0
KMC1 191746Z 16010KT 23/10 A30 RMK A01 T02320096  RH  042%=      5-min Rain = 0
KMC1 191747Z 17008KT 23/09 A30 RMK A01 T02330093  RH  041%=      5-min Rain = 0
KMC1 191748Z 17009KT 23/10 A30 RMK A01 T02310095  RH  042%=      5-min Rain = 0
KMC1 191749Z 19008KT 23/09 A30 RMK A01 T02300093  RH  042%=      5-min Rain = 0
KMC1 191750Z 20007KT 23/09 A30 RMK A01 T02290094  RH  042%=      5-min Rain = 0
KMC1 191751Z 18005KT 23/09 A30 RMK A01 T02290094  RH  042%=      5-min Rain = 0
KMC1 191752Z 19005KT 23/10 A30 RMK A01 T02310096  RH  042%=      5-min Rain = 0
KMC1 191753Z 16008KT 23/10 A30 RMK A01 T02330096  RH  042%=      5-min Rain = 0
KMC1 191754Z 15008KT 23/09 A30 RMK A01 T02330094  RH  041%=      5-min Rain = 0
KMC1 191755Z 16008KT 23/09 A30 RMK A01 T02330093  RH  041%=      5-min Rain = 0
KMC1 191756Z 19006KT 23/10 A30 RMK A01 T02320096  RH  042%=      5-min Rain = 0
KMC1 191757Z 19009KT 23/09 A30 RMK A01 T02340094  RH  041%=      5-min Rain = 0
KMC1 191758Z 19009KT 23/09 A2999 RMK A01 T02330094  RH  041%=      5-min Rain = 0
KMC1 191759Z 20007KT 23/10 A2999 RMK A01 T02340095  RH  041%=      5-min Rain = 0
KMC1 191800Z 17005KT 23/10 A2999 RMK A01 T02340097  RH  042%=      5-min Rain = 0
KMC1 191801Z 16005KT 24/10 A2999 RMK A01 T02360099  RH  042%=      5-min Rain = 0
KMC1 191802Z 17004KT 24/10 A2999 RMK A01 T02370098  RH  041%=      5-min Rain = 0
KMC1 191803Z 17006G11KT 24/10 A2999 RMK A01 T02360099  RH  042%=      5-min Rain = 0
KMC1 191804Z 19007G12KT 24/10 A2999 RMK A01 T02370097  RH  041%=      5-min Rain = 0
KMC1 191805Z 18006KT 24/10 A2999 RMK A01 T02370097  RH  041%=      5-min Rain = 0
KMC1 191806Z 17010KT 24/10 A2999 RMK A01 T02360096  RH  041%=      5-min Rain = 0
KMC1 191807Z 18006KT 24/09 A2999 RMK A01 T02360094  RH  041%=      5-min Rain = 0
KMC1 191808Z 16005KT 24/09 A2999 RMK A01 T02360094  RH  041%=      5-min Rain = 0
KMC1 191809Z 18007G12KT 24/10 A2999 RMK A01 T02360095  RH  041%=      5-min Rain = 0
KMC1 191810Z 15009KT 24/09 A2999 RMK A01 T02380092  RH  040%=      5-min Rain = 0
KMC1 191811Z 16006KT 24/09 A2999 RMK A01 T02360090  RH  039%=      5-min Rain = 0
KMC1 191812Z 17008KT 24/09 A2999 RMK A01 T02350090  RH  040%=      5-min Rain = 0
KMC1 191813Z 18008KT 24/09 A2999 RMK A01 T02350090  RH  040%=      5-min Rain = 0
KMC1 191814Z 18009KT 23/09 A2999 RMK A01 T02340089  RH  040%=      5-min Rain = 0
KMC1 191815Z 18009KT 23/09 A2998 RMK A01 T02340090  RH  040%=      5-min Rain = 0
KMC1 191816Z 18009KT 23/09 A2998 RMK A01 T02340091  RH  040%=      5-min Rain = 0
KMC1 191817Z 18008KT 24/09 A2998 RMK A01 T02350092  RH  040%=      5-min Rain = 0
KMC1 191818Z 17006KT 23/09 A2998 RMK A01 T02340092  RH  040%=      5-min Rain = 0
KMC1 191819Z 16006KT 23/09 A2998 RMK A01 T02340094  RH  041%=      5-min Rain = 0
KMC1 191820Z 16005KT 24/10 A2998 RMK A01 T02360095  RH  041%=      5-min Rain = 0
KMC1 191821Z 18010KT 24/10 A2998 RMK A01 T02400095  RH  040%=      5-min Rain = 0
KMC1 191822Z 16009KT 24/09 A2998 RMK A01 T02410092  RH  039%=      5-min Rain = 0
KMC1 191823Z 17010KT 24/09 A2998 RMK A01 T02390091  RH  039%=      5-min Rain = 0
KMC1 191824Z 18009KT 24/09 A2998 RMK A01 T02380091  RH  039%=      5-min Rain = 0
KMC1 191825Z 18010KT 24/09 A2998 RMK A01 T02370091  RH  039%=      5-min Rain = 0
KMC1 191826Z 18008KT 24/09 A2998 RMK A01 T02360091  RH  040%=      5-min Rain = 0
KMC1 191827Z 18007KT 24/09 A2998 RMK A01 T02360092  RH  040%=      5-min Rain = 0
KMC1 191828Z 18007KT 24/09 A2998 RMK A01 T02360093  RH  040%=      5-min Rain = 0
KMC1 191829Z 17008KT 24/09 A2998 RMK A01 T02370094  RH  040%=      5-min Rain = 0
KMC1 191830Z 16007KT 24/09 A2998 RMK A01 T02380094  RH  040%=      5-min Rain = 0
KMC1 191831Z 16008KT 24/09 A2998 RMK A01 T02400093  RH  039%=      5-min Rain = 0
KMC1 191832Z 17006KT 24/09 A2998 RMK A01 T02390093  RH  039%=      5-min Rain = 0
KMC1 191833Z 16008KT 24/10 A2998 RMK A01 T02390095  RH  040%=      5-min Rain = 0
KMC1 191834Z 18007KT 24/09 A2998 RMK A01 T02400093  RH  039%=      5-min Rain = 0
KMC1 191835Z 16007KT 24/09 A2997 RMK A01 T02400094  RH  039%=      5-min Rain = 0
KMC1 191836Z 15008KT 24/09 A2997 RMK A01 T02390093  RH  040%=      5-min Rain = 0
KMC1 191837Z 15007KT 24/09 A2997 RMK A01 T02360093  RH  040%=      5-min Rain = 0
KMC1 191838Z 16007KT 24/09 A2997 RMK A01 T02360093  RH  040%=      5-min Rain = 0
KMC1 191839Z 17005KT 23/09 A2997 RMK A01 T02340093  RH  041%=      5-min Rain = 0
KMC1 191840Z 16005KT 23/09 A2997 RMK A01 T02330094  RH  041%=      5-min Rain = 0
KMC1 191841Z 17003KT 23/10 A2997 RMK A01 T02330095  RH  042%=      5-min Rain = 0
KMC1 191842Z 16006KT 23/10 A2997 RMK A01 T02320095  RH  042%=      5-min Rain = 0
KMC1 191843Z 16005KT 23/10 A2997 RMK A01 T02330096  RH  042%=      5-min Rain = 0
KMC1 191844Z 17007KT 23/10 A2997 RMK A01 T02330095  RH  042%=      5-min Rain = 0
KMC1 191845Z 16008KT 23/10 A2997 RMK A01 T02330096  RH  042%=      5-min Rain = 0
KMC1 191846Z 16007KT 23/10 A2997 RMK A01 T02310096  RH  042%=      5-min Rain = 0
KMC1 191847Z 15007KT 23/10 A2997 RMK A01 T02310097  RH  043%=      5-min Rain = 0
KMC1 191848Z 14007KT 23/10 A2997 RMK A01 T02310096  RH  042%=      5-min Rain = 0
KMC1 191849Z 14006G11KT 23/10 A2997 RMK A01 T02310096  RH  042%=      5-min Rain = 0
KMC1 191850Z 15006G11KT 23/10 A2997 RMK A01 T02320096  RH  042%=      5-min Rain = 0
KMC1 191851Z 14006KT 23/10 A2997 RMK A01 T02330096  RH  042%=      5-min Rain = 0
KMC1 191852Z 16007KT 24/10 A2996 RMK A01 T02360099  RH  042%=      5-min Rain = 0
KMC1 191853Z 15007KT 24/10 A2996 RMK A01 T02390098  RH  041%=      5-min Rain = 0
KMC1 191854Z 16005KT 24/10 A2996 RMK A01 T02390098  RH  041%=      5-min Rain = 0
KMC1 191855Z 15007KT 24/10 A2996 RMK A01 T02410100  RH  041%=      5-min Rain = 0
KMC1 191856Z 15008KT 24/10 A2996 RMK A01 T02430100  RH  040%=      5-min Rain = 0
KMC1 191857Z 18004KT 24/10 A2996 RMK A01 T02440099  RH  040%=      5-min Rain = 0
KMC1 191858Z 16006KT 25/10 A2996 RMK A01 T02480101  RH  040%=      5-min Rain = 0
KMC1 191859Z 16006G11KT 25/10 A2996 RMK A01 T02510100  RH  038%=      5-min Rain = 0
KMC1 191900Z 18006G12KT 25/10 A2996 RMK A01 T02530099  RH  038%=      5-min Rain = 0
KMC1 191901Z 16005KT 26/10 A2996 RMK A01 T02550101  RH  038%=      5-min Rain = 0
KMC1 191902Z 14005KT 26/10 A2996 RMK A01 T02570101  RH  037%=      5-min Rain = 0
KMC1 191903Z 19006KT 26/10 A2995 RMK A01 T02550100  RH  038%=      5-min Rain = 0
KMC1 191904Z 19006KT 25/10 A2995 RMK A01 T02520097  RH  038%=      5-min Rain = 0
KMC1 191905Z 20007KT 25/10 A2995 RMK A01 T02490096  RH  038%=      5-min Rain = 0
KMC1 191906Z 17006KT 25/10 A2995 RMK A01 T02480098  RH  039%=      5-min Rain = 0
KMC1 191907Z 15005G10KT 25/10 A2995 RMK A01 T02480098  RH  039%=      5-min Rain = 0
KMC1 191908Z 15007KT 25/10 A2995 RMK A01 T02490099  RH  039%=      5-min Rain = 0
KMC1 191909Z 15006G11KT 25/10 A2995 RMK A01 T02500100  RH  039%=      5-min Rain = 0
KMC1 191910Z 17009KT 25/10 A2995 RMK A01 T02520098  RH  038%=      5-min Rain = 0
KMC1 191911Z 17006KT 25/10 A2995 RMK A01 T02490099  RH  039%=      5-min Rain = 0
KMC1 191912Z 15007KT 25/10 A2995 RMK A01 T02500100  RH  039%=      5-min Rain = 0
KMC1 191913Z 15007KT 25/10 A2995 RMK A01 T02510099  RH  038%=      5-min Rain = 0
KMC1 191914Z 15008KT 25/10 A2995 RMK A01 T02500098  RH  038%=      5-min Rain = 0
KMC1 191915Z 18005KT 25/10 A2995 RMK A01 T02480099  RH  039%=      5-min Rain = 0
KMC1 191916Z 18005KT 25/10 A2995 RMK A01 T02500099  RH  039%=      5-min Rain = 0
KMC1 191917Z 18008KT 25/10 A2994 RMK A01 T02500099  RH  038%=      5-min Rain = 0
KMC1 191918Z 17005KT 25/10 A2994 RMK A01 T02500100  RH  039%=      5-min Rain = 0
KMC1 191919Z 18006KT 25/10 A2994 RMK A01 T02530103  RH  039%=      5-min Rain = 0
KMC1 191920Z 16007G12KT 26/10 A2994 RMK A01 T02580103  RH  038%=      5-min Rain = 0
KMC1 191921Z 16009KT 26/10 A2994 RMK A01 T02610099  RH  036%=      5-min Rain = 0
KMC1 191922Z 17009KT 26/10 A2994 RMK A01 T02600097  RH  036%=      5-min Rain = 0
KMC1 191923Z 18009KT 26/10 A2994 RMK A01 T02570095  RH  036%=      5-min Rain = 0
KMC1 191924Z 17006KT 26/10 A2994 RMK A01 T02550097  RH  037%=      5-min Rain = 0
KMC1 191925Z 16006G11KT 26/10 A2994 RMK A01 T02560098  RH  037%=      5-min Rain = 0
KMC1 191926Z 17009KT 26/10 A2994 RMK A01 T02590096  RH  036%=      5-min Rain = 0
KMC1 191927Z 18006KT 26/10 A2994 RMK A01 T02590095  RH  036%=      5-min Rain = 0
KMC1 191928Z 17008KT 26/09 A2994 RMK A01 T02590094  RH  035%=      5-min Rain = 0
KMC1 191929Z 16009KT 26/09 A2994 RMK A01 T02590094  RH  035%=      5-min Rain = 0
KMC1 191930Z 16008KT 26/09 A2994 RMK A01 T02600093  RH  035%=      5-min Rain = 0
KMC1 191931Z 18006KT 26/09 A2994 RMK A01 T02600092  RH  035%=      5-min Rain = 0
KMC1 191932Z 18007KT 26/09 A2993 RMK A01 T02600092  RH  035%=      5-min Rain = 0
KMC1 191933Z 17005KT 26/09 A2993 RMK A01 T02600092  RH  035%=      5-min Rain = 0
KMC1 191934Z 16008KT 26/09 A2993 RMK A01 T02610090  RH  034%=      5-min Rain = 0
KMC1 191935Z 18012KT 26/09 A2993 RMK A01 T02610088  RH  033%=      5-min Rain = 0
KMC1 191936Z 18009KT 26/09 A2993 RMK A01 T02600086  RH  033%=      5-min Rain = 0
KMC1 191937Z 17010KT 26/08 A2993 RMK A01 T02570084  RH  033%=      5-min Rain = 0
KMC1 191938Z 18008KT 26/08 A2993 RMK A01 T02560084  RH  034%=      5-min Rain = 0
KMC1 191939Z 15009KT 26/09 A2993 RMK A01 T02550085  RH  034%=      5-min Rain = 0
KMC1 191940Z 15009KT 26/08 A2992 RMK A01 T02550084  RH  034%=      5-min Rain = 0
KMC1 191941Z 18010KT 25/09 A2993 RMK A01 T02540085  RH  034%=      5-min Rain = 0
KMC1 191942Z 19007KT 25/08 A2993 RMK A01 T02540082  RH  034%=      5-min Rain = 0
KMC1 191943Z 17009KT 25/08 A2993 RMK A01 T02540083  RH  034%=      5-min Rain = 0
KMC1 191944Z 15009KT 25/08 A2992 RMK A01 T02530084  RH  034%=      5-min Rain = 0
KMC1 191945Z 16009KT 25/09 A2993 RMK A01 T02520085  RH  035%=      5-min Rain = 0
KMC1 191946Z 16009KT 25/08 A2992 RMK A01 T02500084  RH  035%=      5-min Rain = 0
KMC1 191947Z 17009KT 25/09 A2992 RMK A01 T02500085  RH  035%=      5-min Rain = 0
KMC1 191948Z 16008G13KT 25/09 A2992 RMK A01 T02490085  RH  035%=      5-min Rain = 0
KMC1 191949Z 16012KT 25/09 A2992 RMK A01 T02490085  RH  035%=      5-min Rain = 0
KMC1 191950Z 16011G17KT 25/08 A2992 RMK A01 T02490084  RH  035%=      5-min Rain = 0
KMC1 191951Z 16008KT 25/08 A2992 RMK A01 T02490084  RH  035%=      5-min Rain = 0
KMC1 191952Z 15010KT 25/08 A2992 RMK A01 T02490084  RH  035%=      5-min Rain = 0
KMC1 191953Z 14008KT 25/08 A2992 RMK A01 T02490084  RH  035%=      5-min Rain = 0
KMC1 191954Z 17012G18KT 25/09 A2992 RMK A01 T02510085  RH  035%=      5-min Rain = 0
KMC1 191955Z 17009G14KT 25/08 A2992 RMK A01 T02520084  RH  034%=      5-min Rain = 0
KMC1 191956Z 16009KT 25/09 A2992 RMK A01 T02520085  RH  034%=      5-min Rain = 0
KMC1 191957Z 15008KT 25/08 A2992 RMK A01 T02520084  RH  034%=      5-min Rain = 0
KMC1 191958Z 17005KT 25/09 A2992 RMK A01 T02530086  RH  035%=      5-min Rain = 0
KMC1 191959Z 18008KT 26/09 A2992 RMK A01 T02550087  RH  034%=      5-min Rain = 0
KMC1 192000Z 17008KT 26/09 A2992 RMK A01 T02570087  RH  034%=      5-min Rain = 0
KMC1 192001Z 17010G15KT 26/09 A2992 RMK A01 T02580087  RH  034%=      5-min Rain = 0
KMC1 192002Z 14006KT 26/09 A2992 RMK A01 T02580087  RH  034%=      5-min Rain = 0
KMC1 192003Z 15008KT 26/09 A2992 RMK A01 T02580087  RH  034%=      5-min Rain = 0
KMC1 192004Z 16006KT 26/09 A2992 RMK A01 T02600088  RH  034%=      5-min Rain = 0
KMC1 192005Z 18006KT 26/09 A2992 RMK A01 T02620090  RH  034%=      5-min Rain = 0
KMC1 192006Z 18012KT 26/09 A2992 RMK A01 T02640087  RH  033%=      5-min Rain = 0
KMC1 192007Z 19011KT 26/08 A2992 RMK A01 T02630084  RH  032%=      5-min Rain = 0
KMC1 192008Z 20011KT 26/08 A2992 RMK A01 T02620084  RH  032%=      5-min Rain = 0
KMC1 192009Z 21011KT 26/08 A2992 RMK A01 T02620084  RH  032%=      5-min Rain = 0
KMC1 192010Z 19009KT 26/08 A2992 RMK A01 T02610083  RH  032%=      5-min Rain = 0
KMC1 192011Z 19009G14KT 26/08 A2992 RMK A01 T02610084  RH  033%=      5-min Rain = 0
KMC1 192012Z 17009G14KT 26/08 A2992 RMK A01 T02630084  RH  032%=      5-min Rain = 0
KMC1 192013Z 18010G15KT 27/08 A2991 RMK A01 T02650083  RH  032%=      5-min Rain = 0
KMC1 192014Z 20010G15KT 26/08 A2992 RMK A01 T02630083  RH  032%=      5-min Rain = 0
KMC1 192015Z 19014KT 26/08 A2992 RMK A01 T02630083  RH  032%=      5-min Rain = 0
KMC1 192016Z 19013KT 26/08 A2991 RMK A01 T02610082  RH  032%=      5-min Rain = 0
KMC1 192017Z 18011KT 26/08 A2992 RMK A01 T02600082  RH  032%=      5-min Rain = 0
KMC1 192018Z 18010KT 26/08 A2992 RMK A01 T02590083  RH  033%=      5-min Rain = 0
KMC1 192019Z 16008KT 26/08 A2992 RMK A01 T02600084  RH  033%=      5-min Rain = 0
KMC1 192020Z 17008KT 26/08 A2992 RMK A01 T02610084  RH  032%=      5-min Rain = 0
KMC1 192021Z 17011KT 26/08 A2992 RMK A01 T02610084  RH  033%=      5-min Rain = 0
KMC1 192022Z 17008KT 26/09 A2991 RMK A01 T02600085  RH  033%=      5-min Rain = 0
KMC1 192023Z 17007KT 26/09 A2991 RMK A01 T02600086  RH  033%=      5-min Rain = 0
KMC1 192024Z 18008KT 26/09 A2991 RMK A01 T02610086  RH  033%=      5-min Rain = 0
KMC1 192025Z 19011G17KT 26/09 A2991 RMK A01 T02610086  RH  033%=      5-min Rain = 0
KMC1 192026Z 20009KT 26/08 A2991 RMK A01 T02620084  RH  032%=      5-min Rain = 0
KMC1 192027Z 18010G15KT 26/09 A2991 RMK A01 T02620085  RH  033%=      5-min Rain = 0
KMC1 192028Z 16010KT 26/08 A2991 RMK A01 T02620083  RH  032%=      5-min Rain = 0
KMC1 192029Z 20011KT 26/08 A2991 RMK A01 T02620084  RH  032%=      5-min Rain = 0
KMC1 192030Z 19009KT 26/08 A2991 RMK A01 T02610081  RH  032%=      5-min Rain = 0
KMC1 192031Z 18010KT 26/08 A2991 RMK A01 T02590082  RH  033%=      5-min Rain = 0
KMC1 192032Z 19010KT 26/08 A2991 RMK A01 T02590083  RH  033%=      5-min Rain = 0
KMC1 192033Z 18008KT 26/08 A2991 RMK A01 T02610084  RH  033%=      5-min Rain = 0
KMC1 192034Z 18011KT 26/08 A2991 RMK A01 T02630084  RH  032%=      5-min Rain = 0
KMC1 192035Z 19008KT 26/08 A2991 RMK A01 T02640083  RH  032%=      5-min Rain = 0
KMC1 192036Z 18011G16KT 26/08 A2991 RMK A01 T02630082  RH  032%=      5-min Rain = 0
KMC1 192037Z 18011KT 26/08 A2991 RMK A01 T02630082  RH  032%=      5-min Rain = 0
KMC1 192038Z 19013KT 26/08 A2991 RMK A01 T02620082  RH  032%=      5-min Rain = 0
KMC1 192039Z 18011KT 26/08 A2991 RMK A01 T02590080  RH  032%=      5-min Rain = 0
KMC1 192040Z 19010G15KT 26/08 A2991 RMK A01 T02570082  RH  033%=      5-min Rain = 0
KMC1 192041Z 19010KT 26/08 A2991 RMK A01 T02560081  RH  033%=      5-min Rain = 0
KMC1 192042Z 18009KT 26/08 A2991 RMK A01 T02550081  RH  033%=      5-min Rain = 0
KMC1 192043Z 17011KT 26/08 A2991 RMK A01 T02550083  RH  034%=      5-min Rain = 0
KMC1 192044Z 17011KT 26/08 A2991 RMK A01 T02550083  RH  034%=      5-min Rain = 0
KMC1 192045Z 18012KT 26/08 A2991 RMK A01 T02560083  RH  033%=      5-min Rain = 0
KMC1 192046Z 17007G12KT 26/08 A2991 RMK A01 T02560083  RH  033%=      5-min Rain = 0
KMC1 192047Z 17009KT 26/09 A2991 RMK A01 T02560085  RH  034%=      5-min Rain = 0
KMC1 192048Z 17008KT 26/09 A2991 RMK A01 T02580085  RH  033%=      5-min Rain = 0
KMC1 192049Z 17009KT 26/09 A2991 RMK A01 T02590086  RH  033%=      5-min Rain = 0
KMC1 192050Z 18008KT 26/09 A2991 RMK A01 T02590086  RH  033%=      5-min Rain = 0
KMC1 192051Z 18009KT 26/09 A2991 RMK A01 T02590087  RH  033%=      5-min Rain = 0
KMC1 192052Z 19012KT 26/09 A2991 RMK A01 T02600087  RH  034%=      5-min Rain = 0
KMC1 192053Z 19010KT 26/09 A2991 RMK A01 T02590085  RH  033%=      5-min Rain = 0
KMC1 192054Z 19008KT 26/09 A299 RMK A01 T02580086  RH  034%=      5-min Rain = 0
KMC1 192055Z 19009KT 26/09 A299 RMK A01 T02570086  RH  034%=      5-min Rain = 0
KMC1 192056Z 19009KT 26/09 A299 RMK A01 T02570087  RH  034%=      5-min Rain = 0
KMC1 192057Z 18009KT 26/09 A299 RMK A01 T02580088  RH  034%=      5-min Rain = 0
KMC1 192058Z 18012KT 26/09 A299 RMK A01 T02590088  RH  034%=      5-min Rain = 0
KMC1 192059Z 16009KT 26/09 A299 RMK A01 T02590088  RH  034%=      5-min Rain = 0
KMC1 192100Z 16009KT 26/09 A299 RMK A01 T02580087  RH  034%=      5-min Rain = 0
KMC1 192101Z 16008KT 26/09 A299 RMK A01 T02580088  RH  034%=      5-min Rain = 0
KMC1 192102Z 15009KT 26/09 A299 RMK A01 T02580089  RH  034%=      5-min Rain = 0
KMC1 192103Z 14010KT 26/09 A299 RMK A01 T02590089  RH  034%=      5-min Rain = 0
KMC1 192104Z 15010G17KT 26/09 A299 RMK A01 T02580088  RH  034%=      5-min Rain = 0
KMC1 192105Z 15009KT 26/09 A299 RMK A01 T02570089  RH  034%=      5-min Rain = 0
KMC1 192106Z 16008KT 26/09 A299 RMK A01 T02570089  RH  034%=      5-min Rain = 0
KMC1 192107Z 16008G13KT 26/09 A299 RMK A01 T02570090  RH  035%=      5-min Rain = 0
KMC1 192108Z 17012KT 26/09 A299 RMK A01 T02580089  RH  034%=      5-min Rain = 0
KMC1 192109Z 17011G16KT 26/09 A299 RMK A01 T02580087  RH  034%=      5-min Rain = 0
KMC1 192110Z 15008KT 26/09 A299 RMK A01 T02570089  RH  034%=      5-min Rain = 0
KMC1 192111Z 15007KT 26/09 A299 RMK A01 T02580088  RH  034%=      5-min Rain = 0
KMC1 192112Z 17010KT 26/09 A299 RMK A01 T02600087  RH  034%=      5-min Rain = 0
KMC1 192113Z 17009KT 26/09 A299 RMK A01 T02590086  RH  033%=      5-min Rain = 0
KMC1 192114Z 16011KT 26/09 A299 RMK A01 T02570086  RH  034%=      5-min Rain = 0
KMC1 192115Z 14007KT 26/09 A299 RMK A01 T02570087  RH  034%=      5-min Rain = 0
KMC1 192116Z 14007G13KT 26/09 A299 RMK A01 T02570087  RH  034%=      5-min Rain = 0
KMC1 192117Z 15008KT 26/09 A299 RMK A01 T02570088  RH  034%=      5-min Rain = 0
KMC1 192118Z 16009G14KT 26/09 A299 RMK A01 T02570089  RH  034%=      5-min Rain = 0
KMC1 192119Z 17010KT 26/09 A299 RMK A01 T02580089  RH  034%=      5-min Rain = 0
KMC1 192120Z 16010KT 26/09 A299 RMK A01 T02580088  RH  034%=      5-min Rain = 0
KMC1 192121Z 16010KT 26/09 A299 RMK A01 T02580087  RH  034%=      5-min Rain = 0
KMC1 192122Z 18006KT 26/09 A299 RMK A01 T02570088  RH  034%=      5-min Rain = 0
KMC1 192123Z 18007KT 26/09 A299 RMK A01 T02570089  RH  034%=      5-min Rain = 0
KMC1 192124Z 15007KT 26/09 A299 RMK A01 T02580090  RH  034%=      5-min Rain = 0
KMC1 192125Z 15007KT 26/09 A299 RMK A01 T02590090  RH  034%=      5-min Rain = 0
KMC1 192126Z 15009KT 26/09 A299 RMK A01 T02600090  RH  034%=      5-min Rain = 0
KMC1 192127Z 15008KT 26/09 A299 RMK A01 T02590090  RH  034%=      5-min Rain = 0
KMC1 192128Z 15008G13KT 26/09 A299 RMK A01 T02580091  RH  035%=      5-min Rain = 0
KMC1 192129Z 16008KT 26/09 A299 RMK A01 T02580091  RH  035%=      5-min Rain = 0
KMC1 192130Z 16010KT 26/09 A299 RMK A01 T02590091  RH  035%=      5-min Rain = 0
KMC1 192131Z 15010KT 26/09 A299 RMK A01 T02590090  RH  034%=      5-min Rain = 0
KMC1 192132Z 16010G16KT 26/09 A299 RMK A01 T02580090  RH  034%=      5-min Rain = 0
KMC1 192133Z 17008KT 26/09 A2991 RMK A01 T02570090  RH  035%=      5-min Rain = 0
KMC1 192134Z 18007KT 26/09 A2991 RMK A01 T02580091  RH  035%=      5-min Rain = 0
KMC1 192135Z 18008KT 26/09 A299 RMK A01 T02600092  RH  035%=      5-min Rain = 0
KMC1 192136Z 15007KT 26/09 A299 RMK A01 T02600091  RH  034%=      5-min Rain = 0
KMC1 192137Z 16008KT 26/09 A299 RMK A01 T02590090  RH  034%=      5-min Rain = 0
KMC1 192138Z 17006KT 26/09 A299 RMK A01 T02590090  RH  034%=      5-min Rain = 0
KMC1 192139Z 18007KT 26/09 A299 RMK A01 T02590091  RH  035%=      5-min Rain = 0
KMC1 192140Z 17009G15KT 26/09 A299 RMK A01 T02610092  RH  034%=      5-min Rain = 0
KMC1 192141Z 17012KT 26/09 A299 RMK A01 T02610091  RH  034%=      5-min Rain = 0
KMC1 192142Z 16010KT 26/09 A299 RMK A01 T02610091  RH  034%=      5-min Rain = 0
KMC1 192143Z 17009KT 26/09 A299 RMK A01 T02600089  RH  034%=      5-min Rain = 0
KMC1 192144Z 17010G15KT 26/09 A299 RMK A01 T02590089  RH  034%=      5-min Rain = 0
KMC1 192145Z 17009KT 26/09 A299 RMK A01 T02580088  RH  034%=      5-min Rain = 0
KMC1 192146Z 16010KT 26/09 A299 RMK A01 T02570088  RH  034%=      5-min Rain = 0
KMC1 192147Z 16010G15KT 26/09 A299 RMK A01 T02570088  RH  034%=      5-min Rain = 0
KMC1 192148Z 17011KT 26/09 A299 RMK A01 T02570088  RH  034%=      5-min Rain = 0
KMC1 192149Z 17011KT 26/09 A299 RMK A01 T02560087  RH  034%=      5-min Rain = 0
KMC1 192150Z 16011KT 25/09 A299 RMK A01 T02540087  RH  035%=      5-min Rain = 0
KMC1 192151Z 16008G13KT 25/09 A299 RMK A01 T02540087  RH  035%=      5-min Rain = 0
KMC1 192152Z 16008G13KT 25/09 A299 RMK A01 T02540087  RH  035%=      5-min Rain = 0
KMC1 192153Z 18008KT 26/09 A299 RMK A01 T02550086  RH  034%=      5-min Rain = 0
KMC1 192154Z 18007KT 26/09 A299 RMK A01 T02560086  RH  034%=      5-min Rain = 0
KMC1 192155Z 17011KT 26/09 A299 RMK A01 T02570085  RH  034%=      5-min Rain = 0
KMC1 192156Z 18012KT 26/08 A299 RMK A01 T02570084  RH  033%=      5-min Rain = 0
KMC1 192157Z 18010KT 26/08 A299 RMK A01 T02560084  RH  033%=      5-min Rain = 0
KMC1 192158Z 15011KT 26/09 A299 RMK A01 T02560085  RH  034%=      5-min Rain = 0
KMC1 192159Z 16008KT 26/08 A299 RMK A01 T02550083  RH  033%=      5-min Rain = 0
KMC1 192200Z 15008KT 26/08 A299 RMK A01 T02550084  RH  034%=      5-min Rain = 0
KMC1 192201Z 16009KT 26/08 A299 RMK A01 T02550083  RH  034%=      5-min Rain = 0
KMC1 192202Z 17010KT 25/08 A299 RMK A01 T02540082  RH  034%=      5-min Rain = 0
KMC1 192203Z 17008KT 25/08 A299 RMK A01 T02530083  RH  034%=      5-min Rain = 0
KMC1 192204Z 17010KT 25/08 A299 RMK A01 T02530083  RH  034%=      5-min Rain = 0
KMC1 192205Z 17011KT 25/08 A299 RMK A01 T02530083  RH  034%=      5-min Rain = 0
KMC1 192206Z 18008KT 25/08 A299 RMK A01 T02540084  RH  034%=      5-min Rain = 0
KMC1 192207Z 19008KT 25/08 A299 RMK A01 T02540083  RH  034%=      5-min Rain = 0
KMC1 192208Z 17013KT 25/08 A299 RMK A01 T02540083  RH  034%=      5-min Rain = 0
KMC1 192209Z 18011KT 25/08 A299 RMK A01 T02530083  RH  034%=      5-min Rain = 0
KMC1 192210Z 16008G13KT 25/08 A299 RMK A01 T02530083  RH  034%=      5-min Rain = 0
KMC1 192211Z 17010G15KT 25/08 A299 RMK A01 T02520082  RH  034%=      5-min Rain = 0
KMC1 192212Z 18013G18KT 25/08 A299 RMK A01 T02520081  RH  034%=      5-min Rain = 0
KMC1 192213Z 16009KT 25/08 A299 RMK A01 T02510081  RH  034%=      5-min Rain = 0
KMC1 192214Z 17010KT 25/08 A299 RMK A01 T02520082  RH  034%=      5-min Rain = 0
KMC1 192215Z 17007KT 25/08 A299 RMK A01 T02520082  RH  034%=      5-min Rain = 0
KMC1 192216Z 16009KT 25/08 A299 RMK A01 T02510083  RH  034%=      5-min Rain = 0
KMC1 192217Z 17007KT 25/08 A299 RMK A01 T02520084  RH  034%=      5-min Rain = 0
KMC1 192218Z 17007KT 25/09 A299 RMK A01 T02520085  RH  035%=      5-min Rain = 0
KMC1 192219Z 19004KT 25/09 A299 RMK A01 T02530087  RH  035%=      5-min Rain = 0
KMC1 192220Z 17005KT 25/09 A299 RMK A01 T02540087  RH  035%=      5-min Rain = 0
KMC1 192221Z 16005KT 26/09 A299 RMK A01 T02550087  RH  034%=      5-min Rain = 0
KMC1 192222Z 19008KT 25/09 A299 RMK A01 T02540086  RH  034%=      5-min Rain = 0
KMC1 192223Z 18010KT 25/08 A299 RMK A01 T02540082  RH  034%=      5-min Rain = 0
KMC1 192224Z 17010KT 25/08 A299 RMK A01 T02520080  RH  033%=      5-min Rain = 0
KMC1 192225Z 18009KT 25/08 A299 RMK A01 T02510078  RH  033%=      5-min Rain = 0
KMC1 192226Z 17008KT 25/08 A299 RMK A01 T02500078  RH  033%=      5-min Rain = 0
KMC1 192227Z 18007KT 25/08 A299 RMK A01 T02500080  RH  034%=      5-min Rain = 0
KMC1 192228Z 17008G13KT 25/08 A299 RMK A01 T02500081  RH  034%=      5-min Rain = 0
KMC1 192229Z 17007KT 25/08 A299 RMK A01 T02500084  RH  035%=      5-min Rain = 0
KMC1 192230Z 17007KT 25/09 A299 RMK A01 T02500085  RH  035%=      5-min Rain = 0
KMC1 192231Z 17005KT 25/09 A299 RMK A01 T02500087  RH  036%=      5-min Rain = 0
KMC1 192232Z 16007G12KT 25/09 A299 RMK A01 T02500088  RH  036%=      5-min Rain = 0
KMC1 192233Z 16012KT 25/09 A299 RMK A01 T02500087  RH  035%=      5-min Rain = 0
KMC1 192234Z 15007KT 25/09 A299 RMK A01 T02490086  RH  036%=      5-min Rain = 0
KMC1 192235Z 17010KT 25/09 A299 RMK A01 T02480087  RH  036%=      5-min Rain = 0
KMC1 192236Z 16009KT 25/09 A299 RMK A01 T02470086  RH  036%=      5-min Rain = 0
KMC1 192237Z 15009KT 25/09 A299 RMK A01 T02470086  RH  036%=      5-min Rain = 0
KMC1 192238Z 17008KT 25/08 A299 RMK A01 T02460084  RH  036%=      5-min Rain = 0
KMC1 192239Z 15010G15KT 25/08 A299 RMK A01 T02450083  RH  036%=      5-min Rain = 0
KMC1 192240Z 15009KT 25/08 A299 RMK A01 T02450081  RH  035%=      5-min Rain = 0
KMC1 192241Z 15009KT 24/08 A299 RMK A01 T02440081  RH  035%=      5-min Rain = 0
KMC1 192242Z 16006KT 24/08 A299 RMK A01 T02440081  RH  035%=      5-min Rain = 0
KMC1 192243Z 16008G13KT 24/08 A299 RMK A01 T02440081  RH  035%=      5-min Rain = 0
KMC1 192244Z 16008KT 24/08 A299 RMK A01 T02440081  RH  035%=      5-min Rain = 0
KMC1 192245Z 15005KT 24/08 A299 RMK A01 T02430082  RH  036%=      5-min Rain = 0
KMC1 192246Z 16006KT 24/08 A299 RMK A01 T02430082  RH  036%=      5-min Rain = 0
KMC1 192247Z 15005KT 24/08 A299 RMK A01 T02420082  RH  036%=      5-min Rain = 0
KMC1 192248Z 14006KT 24/08 A299 RMK A01 T02410082  RH  036%=      5-min Rain = 0
KMC1 192249Z 16006KT 24/08 A299 RMK A01 T02400081  RH  036%=      5-min Rain = 0
KMC1 192250Z 16009G14KT 24/08 A299 RMK A01 T02390081  RH  036%=      5-min Rain = 0
KMC1 192251Z 16008KT 24/08 A299 RMK A01 T02380081  RH  037%=      5-min Rain = 0
KMC1 192252Z 16008KT 24/08 A299 RMK A01 T02370081  RH  037%=      5-min Rain = 0
KMC1 192253Z 15008KT 24/08 A299 RMK A01 T02370081  RH  037%=      5-min Rain = 0
KMC1 192254Z 15009KT 24/08 A299 RMK A01 T02370081  RH  037%=      5-min Rain = 0
KMC1 192255Z 15007KT 24/08 A299 RMK A01 T02360081  RH  037%=      5-min Rain = 0
KMC1 192256Z 16007KT 24/08 A299 RMK A01 T02360081  RH  037%=      5-min Rain = 0
KMC1 192257Z 15006KT 24/08 A299 RMK A01 T02360081  RH  037%=      5-min Rain = 0
KMC1 192258Z 15005KT 24/08 A299 RMK A01 T02360081  RH  037%=      5-min Rain = 0
KMC1 192259Z 16007KT 24/08 A299 RMK A01 T02360081  RH  037%=      5-min Rain = 0
KMC1 192300Z 15005KT 24/08 A299 RMK A01 T02360081  RH  037%=      5-min Rain = 0
KMC1 192301Z 16005G10KT 24/08 A299 RMK A01 T02350082  RH  037%=      5-min Rain = 0
KMC1 192302Z 16009KT 24/08 A299 RMK A01 T02360082  RH  037%=      5-min Rain = 0
KMC1 192303Z 16008KT 24/08 A299 RMK A01 T02350082  RH  038%=      5-min Rain = 0
KMC1 192304Z 15007G12KT 23/08 A299 RMK A01 T02340082  RH  038%=      5-min Rain = 0
KMC1 192305Z 15008KT 23/08 A299 RMK A01 T02330082  RH  038%=      5-min Rain = 0
KMC1 192306Z 16008KT 23/08 A299 RMK A01 T02330083  RH  038%=      5-min Rain = 0
KMC1 192307Z 15008G15KT 23/08 A299 RMK A01 T02320083  RH  039%=      5-min Rain = 0
KMC1 192308Z 15008G13KT 23/08 A299 RMK A01 T02310083  RH  039%=      5-min Rain = 0
KMC1 192309Z 16008KT 23/08 A299 RMK A01 T02300083  RH  039%=      5-min Rain = 0
KMC1 192310Z 16006KT 23/08 A299 RMK A01 T02300083  RH  039%=      5-min Rain = 0
KMC1 192311Z 15008KT 23/08 A299 RMK A01 T02290083  RH  039%=      5-min Rain = 0
KMC1 192312Z 16006KT 23/08 A299 RMK A01 T02280083  RH  039%=      5-min Rain = 0
KMC1 192313Z 16006KT 23/08 A299 RMK A01 T02270083  RH  040%=      5-min Rain = 0
KMC1 192314Z 17008G13KT 23/08 A299 RMK A01 T02260082  RH  040%=      5-min Rain = 0
KMC1 192315Z 15005KT 23/08 A299 RMK A01 T02260082  RH  040%=      5-min Rain = 0
KMC1 192316Z 15006G11KT 23/08 A299 RMK A01 T02250082  RH  040%=      5-min Rain = 0
KMC1 192317Z 15006KT 22/08 A299 RMK A01 T02240082  RH  040%=      5-min Rain = 0
KMC1 192318Z 16005KT 22/08 A299 RMK A01 T02240082  RH  040%=      5-min Rain = 0
KMC1 192319Z 16005KT 22/08 A299 RMK A01 T02230082  RH  040%=      5-min Rain = 0
KMC1 192320Z 15007KT 22/08 A299 RMK A01 T02220081  RH  040%=      5-min Rain = 0
KMC1 192321Z 16006KT 22/08 A299 RMK A01 T02220080  RH  040%=      5-min Rain = 0
KMC1 192322Z 15006KT 22/08 A299 RMK A01 T02220080  RH  040%=      5-min Rain = 0
KMC1 192323Z 15008KT 22/08 A299 RMK A01 T02210079  RH  040%=      5-min Rain = 0
KMC1 192324Z 16005KT 22/08 A299 RMK A01 T02220079  RH  040%=      5-min Rain = 0
KMC1 192325Z 16006KT 22/08 A299 RMK A01 T02210079  RH  040%=      5-min Rain = 0
KMC1 192326Z 15005KT 22/08 A299 RMK A01 T02200078  RH  040%=      5-min Rain = 0
KMC1 192327Z 15004KT 22/08 A299 RMK A01 T02190078  RH  040%=      5-min Rain = 0
KMC1 192328Z 16005KT 22/08 A299 RMK A01 T02190077  RH  040%=      5-min Rain = 0
KMC1 192329Z 15006KT 22/08 A299 RMK A01 T02180077  RH  040%=      5-min Rain = 0
KMC1 192330Z 16005KT 22/08 A299 RMK A01 T02170077  RH  040%=      5-min Rain = 0
KMC1 192331Z 15005KT 22/08 A2991 RMK A01 T02170077  RH  040%=      5-min Rain = 0
KMC1 192332Z 16004KT 22/08 A2991 RMK A01 T02160077  RH  041%=      5-min Rain = 0
KMC1 192333Z 15004KT 22/08 A2991 RMK A01 T02160076  RH  041%=      5-min Rain = 0
KMC1 192334Z 16005KT 22/08 A2991 RMK A01 T02150076  RH  041%=      5-min Rain = 0
KMC1 192335Z 15006KT 22/08 A2991 RMK A01 T02150076  RH  041%=      5-min Rain = 0
KMC1 192336Z 15005KT 21/08 A2991 RMK A01 T02140076  RH  041%=      5-min Rain = 0
KMC1 192337Z 15006KT 21/08 A2991 RMK A01 T02140076  RH  041%=      5-min Rain = 0
KMC1 192338Z 16005KT 21/08 A299 RMK A01 T02140076  RH  041%=      5-min Rain = 0
KMC1 192339Z 15006KT 21/08 A299 RMK A01 T02130076  RH  041%=      5-min Rain = 0
KMC1 192340Z 15006KT 21/08 A299 RMK A01 T02130076  RH  041%=      5-min Rain = 0
KMC1 192341Z 15005KT 21/08 A299 RMK A01 T02130076  RH  041%=      5-min Rain = 0
KMC1 192342Z 16006KT 21/08 A299 RMK A01 T02120076  RH  041%=      5-min Rain = 0
KMC1 192343Z 15005KT 21/08 A2991 RMK A01 T02120076  RH  041%=      5-min Rain = 0
KMC1 192344Z 16006KT 21/08 A299 RMK A01 T02120076  RH  041%=      5-min Rain = 0
KMC1 192345Z 15006KT 21/08 A299 RMK A01 T02110076  RH  042%=      5-min Rain = 0
KMC1 192346Z 15004KT 21/08 A299 RMK A01 T02110076  RH  042%=      5-min Rain = 0
KMC1 192347Z 15005KT 21/08 A299 RMK A01 T02100076  RH  042%=      5-min Rain = 0
KMC1 192348Z 15004KT 21/08 A2991 RMK A01 T02090076  RH  042%=      5-min Rain = 0
KMC1 192349Z 15005KT 21/08 A2991 RMK A01 T02080076  RH  042%=      5-min Rain = 0
KMC1 192350Z 16004KT 21/08 A2991 RMK A01 T02080076  RH  042%=      5-min Rain = 0
KMC1 192351Z 15004KT 21/08 A299 RMK A01 T02070075  RH  042%=      5-min Rain = 0
KMC1 192352Z 15005KT 21/08 A299 RMK A01 T02070075  RH  043%=      5-min Rain = 0
KMC1 192353Z 15006KT 21/08 A299 RMK A01 T02070075  RH  043%=      5-min Rain = 0
KMC1 192354Z 15005KT 21/08 A299 RMK A01 T02060075  RH  043%=      5-min Rain = 0
KMC1 192355Z 15004KT 21/08 A299 RMK A01 T02050075  RH  043%=      5-min Rain = 0
KMC1 192356Z 15004KT 20/08 A299 RMK A01 T02040075  RH  043%=      5-min Rain = 0
KMC1 192357Z 15005KT 20/08 A2991 RMK A01 T02030075  RH  043%=      5-min Rain = 0
KMC1 192358Z 15005KT 20/08 A2991 RMK A01 T02030075  RH  044%=      5-min Rain = 0
KMC1 192359Z 15005KT 20/08 A2991 RMK A01 T02020075  RH  044%=      5-min Rain = 0
KMC1 200000Z 15004KT 20/07 A2991 RMK A01 T02010074  RH  044%=      5-min Rain = 0
KMC1 200001Z 15004KT 20/08 A2991 RMK A01 T02010075  RH  044%=      5-min Rain = 0
KMC1 200002Z 16005KT 20/07 A2991 RMK A01 T02000074  RH  044%=      5-min Rain = 0
KMC1 200003Z 15004KT 20/08 A2991 RMK A01 T02000075  RH  044%=      5-min Rain = 0
KMC1 200004Z 16005KT 20/07 A2991 RMK A01 T01990074  RH  044%=      5-min Rain = 0
KMC1 200005Z 16004KT 20/07 A2991 RMK A01 T01990074  RH  044%=      5-min Rain = 0
KMC1 200006Z 16004KT 20/07 A2991 RMK A01 T01990074  RH  044%=      5-min Rain = 0
KMC1 200007Z 15004KT 20/07 A2991 RMK A01 T01980074  RH  045%=      5-min Rain = 0
KMC1 200008Z 16005KT 20/07 A2991 RMK A01 T01970074  RH  045%=      5-min Rain = 0
KMC1 200009Z 16004KT 20/07 A2991 RMK A01 T01970074  RH  045%=      5-min Rain = 0
KMC1 200010Z 16004KT 20/07 A2991 RMK A01 T01960074  RH  045%=      5-min Rain = 0
KMC1 200011Z 16005KT 20/07 A2991 RMK A01 T01960074  RH  045%=      5-min Rain = 0
KMC1 200012Z 15005KT 20/07 A2991 RMK A01 T01950074  RH  045%=      5-min Rain = 0
KMC1 200013Z 15004KT 19/07 A2991 RMK A01 T01940074  RH  046%=      5-min Rain = 0
KMC1 200014Z 16005KT 19/07 A2991 RMK A01 T01930074  RH  046%=      5-min Rain = 0
KMC1 200015Z 15005KT 19/07 A2991 RMK A01 T01930074  RH  046%=      5-min Rain = 0
KMC1 200016Z 15006KT 19/07 A2991 RMK A01 T01930074  RH  046%=      5-min Rain = 0
KMC1 200017Z 15006KT 19/07 A2991 RMK A01 T01930074  RH  046%=      5-min Rain = 0
KMC1 200018Z 16006KT 19/07 A2991 RMK A01 T01940074  RH  046%=      5-min Rain = 0
KMC1 200019Z 16006KT 20/07 A2991 RMK A01 T01950074  RH  046%=      5-min Rain = 0
KMC1 200020Z 16006KT 20/07 A2991 RMK A01 T01950074  RH  046%=      5-min Rain = 0
KMC1 200021Z 15006KT 20/07 A2991 RMK A01 T01950074  RH  046%=      5-min Rain = 0
KMC1 200022Z 15007KT 20/07 A2991 RMK A01 T01950074  RH  046%=      5-min Rain = 0
KMC1 200023Z 15006KT 20/07 A2991 RMK A01 T01950074  RH  046%=      5-min Rain = 0
KMC1 200024Z 15007KT 20/08 A2991 RMK A01 T01950075  RH  046%=      5-min Rain = 0
KMC1 200025Z 16005KT 20/08 A2991 RMK A01 T01950075  RH  046%=      5-min Rain = 0
KMC1 200026Z 15006KT 19/08 A2991 RMK A01 T01940075  RH  046%=      5-min Rain = 0
KMC1 200027Z 15006KT 19/08 A2991 RMK A01 T01940075  RH  046%=      5-min Rain = 0
KMC1 200028Z 15006KT 19/08 A2991 RMK A01 T01940075  RH  046%=      5-min Rain = 0
KMC1 200029Z 15005KT 19/08 A2991 RMK A01 T01940075  RH  046%=      5-min Rain = 0
KMC1 200030Z 15007KT 19/08 A2991 RMK A01 T01930075  RH  046%=      5-min Rain = 0
KMC1 200031Z 15005KT 19/08 A2991 RMK A01 T01930075  RH  046%=      5-min Rain = 0
KMC1 200032Z 15006KT 19/08 A2991 RMK A01 T01920075  RH  046%=      5-min Rain = 0
KMC1 200033Z 15005KT 19/08 A2991 RMK A01 T01920075  RH  046%=      5-min Rain = 0
KMC1 200034Z 16006KT 19/07 A2991 RMK A01 T01920074  RH  046%=      5-min Rain = 0
KMC1 200035Z 16005KT 19/07 A2991 RMK A01 T01910074  RH  046%=      5-min Rain = 0
KMC1 200036Z 15004KT 19/07 A2991 RMK A01 T01910074  RH  047%=      5-min Rain = 0
KMC1 200037Z 16005KT 19/07 A2991 RMK A01 T01910074  RH  047%=      5-min Rain = 0
KMC1 200038Z 16006KT 19/07 A2991 RMK A01 T01910074  RH  047%=      5-min Rain = 0
KMC1 200039Z 16005KT 19/07 A2991 RMK A01 T01900074  RH  047%=      5-min Rain = 0
KMC1 200040Z 16005KT 19/07 A2991 RMK A01 T01900074  RH  047%=      5-min Rain = 0
KMC1 200041Z 16006KT 19/07 A2991 RMK A01 T01890074  RH  047%=      5-min Rain = 0
KMC1 200042Z 16005KT 19/07 A2991 RMK A01 T01890074  RH  047%=      5-min Rain = 0
KMC1 200043Z 16006KT 19/07 A2991 RMK A01 T01890074  RH  047%=      5-min Rain = 0
KMC1 200044Z 16006KT 19/07 A2991 RMK A01 T01900074  RH  047%=      5-min Rain = 0
KMC1 200045Z 15005KT 19/07 A2991 RMK A01 T01900074  RH  047%=      5-min Rain = 0
KMC1 200046Z 16006KT 19/07 A2991 RMK A01 T01900074  RH  047%=      5-min Rain = 0
KMC1 200047Z 16005KT 19/07 A2991 RMK A01 T01890073  RH  047%=      5-min Rain = 0
KMC1 200048Z 16007KT 19/07 A2991 RMK A01 T01890073  RH  047%=      5-min Rain = 0
KMC1 200049Z 16005KT 19/07 A2991 RMK A01 T01890073  RH  047%=      5-min Rain = 0
KMC1 200050Z 16005KT 19/07 A2991 RMK A01 T01880073  RH  047%=      5-min Rain = 0
KMC1 200051Z 16005KT 19/07 A2991 RMK A01 T01880073  RH  047%=      5-min Rain = 0
KMC1 200052Z 15005KT 19/07 A2991 RMK A01 T01870073  RH  047%=      5-min Rain = 0
KMC1 200053Z 15004KT 19/07 A2991 RMK A01 T01860073  RH  048%=      5-min Rain = 0
KMC1 200054Z 16005KT 19/07 A2991 RMK A01 T01850073  RH  048%=      5-min Rain = 0
KMC1 200055Z 16004KT 19/07 A2991 RMK A01 T01850073  RH  048%=      5-min Rain = 0
KMC1 200056Z 15005KT 18/07 A2991 RMK A01 T01840073  RH  048%=      5-min Rain = 0
KMC1 200057Z 15004KT 18/07 A2991 RMK A01 T01840073  RH  048%=      5-min Rain = 0
KMC1 200058Z 16005KT 18/07 A2991 RMK A01 T01830072  RH  048%=      5-min Rain = 0
KMC1 200059Z 15004KT 18/07 A2991 RMK A01 T01820072  RH  049%=      5-min Rain = 0
KMC1 200100Z 16005KT 18/07 A2991 RMK A01 T01820072  RH  049%=      5-min Rain = 0
KMC1 200101Z 16005KT 18/07 A2992 RMK A01 T01810072  RH  049%=      5-min Rain = 0
KMC1 200102Z 16005KT 18/07 A2992 RMK A01 T01810072  RH  049%=      5-min Rain = 0
KMC1 200103Z 15004KT 18/07 A2992 RMK A01 T01800072  RH  049%=      5-min Rain = 0
KMC1 200104Z 15005KT 18/07 A2992 RMK A01 T01800072  RH  049%=      5-min Rain = 0
KMC1 200105Z 15006KT 18/07 A2991 RMK A01 T01790072  RH  049%=      5-min Rain = 0
KMC1 200106Z 15004KT 18/07 A2991 RMK A01 T01790072  RH  050%=      5-min Rain = 0
KMC1 200107Z 15005KT 18/07 A2991 RMK A01 T01790072  RH  050%=      5-min Rain = 0
KMC1 200108Z 15005KT 18/07 A2991 RMK A01 T01790072  RH  050%=      5-min Rain = 0
KMC1 200109Z 16004KT 18/07 A2992 RMK A01 T01790073  RH  050%=      5-min Rain = 0
KMC1 200110Z 15005KT 18/07 A2992 RMK A01 T01800073  RH  050%=      5-min Rain = 0
KMC1 200111Z 15005KT 18/07 A2992 RMK A01 T01790073  RH  050%=      5-min Rain = 0
KMC1 200112Z 15005KT 18/07 A2992 RMK A01 T01790073  RH  050%=      5-min Rain = 0
KMC1 200113Z 16005KT 18/07 A2992 RMK A01 T01780073  RH  050%=      5-min Rain = 0
KMC1 200114Z 15004KT 18/07 A2992 RMK A01 T01780074  RH  051%=      5-min Rain = 0
KMC1 200115Z 15005KT 18/07 A2992 RMK A01 T01780074  RH  051%=      5-min Rain = 0
KMC1 200116Z 15005KT 18/08 A2992 RMK A01 T01780075  RH  051%=      5-min Rain = 0
KMC1 200117Z 15005KT 18/08 A2992 RMK A01 T01780075  RH  051%=      5-min Rain = 0
KMC1 200118Z 16005KT 18/08 A2992 RMK A01 T01780076  RH  051%=      5-min Rain = 0
KMC1 200119Z 15006KT 18/08 A2992 RMK A01 T01780076  RH  051%=      5-min Rain = 0
KMC1 200120Z 15007KT 18/08 A2992 RMK A01 T01780077  RH  051%=      5-min Rain = 0
KMC1 200121Z 15006KT 18/08 A2992 RMK A01 T01790079  RH  052%=      5-min Rain = 0
KMC1 200122Z 15005KT 18/08 A2992 RMK A01 T01780079  RH  052%=      5-min Rain = 0
KMC1 200123Z 16006KT 18/08 A2992 RMK A01 T01790080  RH  052%=      5-min Rain = 0
KMC1 200124Z 15006KT 18/08 A2992 RMK A01 T01790080  RH  052%=      5-min Rain = 0
KMC1 200125Z 16006KT 18/08 A2992 RMK A01 T01790081  RH  053%=      5-min Rain = 0
KMC1 200126Z 15006KT 18/08 A2992 RMK A01 T01800082  RH  053%=      5-min Rain = 0
KMC1 200127Z 15007G13KT 18/08 A2992 RMK A01 T01800083  RH  053%=      5-min Rain = 0
KMC1 200128Z 16008KT 18/08 A2992 RMK A01 T01800084  RH  053%=      5-min Rain = 0
KMC1 200129Z 16008KT 18/09 A2992 RMK A01 T01810085  RH  053%=      5-min Rain = 0
KMC1 200130Z 15007KT 18/09 A2992 RMK A01 T01820085  RH  053%=      5-min Rain = 0
KMC1 200131Z 15006KT 18/09 A2992 RMK A01 T01820085  RH  053%=      5-min Rain = 0
KMC1 200132Z 16007KT 18/09 A2992 RMK A01 T01820086  RH  053%=      5-min Rain = 0
KMC1 200133Z 16007KT 18/09 A2992 RMK A01 T01830087  RH  054%=      5-min Rain = 0
KMC1 200134Z 15009G14KT 18/09 A2992 RMK A01 T01830087  RH  054%=      5-min Rain = 0
KMC1 200135Z 16009G14KT 18/09 A2992 RMK A01 T01830088  RH  054%=      5-min Rain = 0
KMC1 200136Z 16007KT 18/09 A2992 RMK A01 T01840088  RH  054%=      5-min Rain = 0
KMC1 200137Z 15006KT 18/09 A2992 RMK A01 T01840089  RH  054%=      5-min Rain = 0
KMC1 200138Z 16007G12KT 18/09 A2992 RMK A01 T01840089  RH  054%=      5-min Rain = 0
KMC1 200139Z 16008KT 18/09 A2992 RMK A01 T01840090  RH  054%=      5-min Rain = 0
KMC1 200140Z 16008G14KT 18/09 A2992 RMK A01 T01840090  RH  054%=      5-min Rain = 0
KMC1 200141Z 16008KT 18/09 A2992 RMK A01 T01840090  RH  054%=      5-min Rain = 0
KMC1 200142Z 15006KT 18/09 A2992 RMK A01 T01840090  RH  054%=      5-min Rain = 0
KMC1 200143Z 15009G14KT 18/09 A2992 RMK A01 T01840090  RH  054%=      5-min Rain = 0
KMC1 200144Z 15006KT 18/09 A2992 RMK A01 T01840091  RH  054%=      5-min Rain = 0
KMC1 200145Z 15008KT 19/09 A2992 RMK A01 T01850091  RH  054%=      5-min Rain = 0
KMC1 200146Z 15007KT 19/09 A2992 RMK A01 T01850092  RH  054%=      5-min Rain = 0
KMC1 200147Z 16007KT 19/09 A2992 RMK A01 T01850092  RH  055%=      5-min Rain = 0
KMC1 200148Z 16010G15KT 19/09 A2992 RMK A01 T01850092  RH  055%=      5-min Rain = 0
KMC1 200149Z 15008KT 19/09 A2992 RMK A01 T01850093  RH  055%=      5-min Rain = 0
KMC1 200150Z 14006G11KT 19/09 A2992 RMK A01 T01860093  RH  055%=      5-min Rain = 0
KMC1 200151Z 15009KT 19/09 A2992 RMK A01 T01860094  RH  055%=      5-min Rain = 0
KMC1 200152Z 16009KT 19/09 A2992 RMK A01 T01860094  RH  055%=      5-min Rain = 0
KMC1 200153Z 16007KT 19/09 A2992 RMK A01 T01860094  RH  055%=      5-min Rain = 0
KMC1 200154Z 16010KT 19/09 A2992 RMK A01 T01860094  RH  055%=      5-min Rain = 0
KMC1 200155Z 15010G15KT 19/10 A2992 RMK A01 T01860095  RH  055%=      5-min Rain = 0
KMC1 200156Z 16007KT 19/10 A2992 RMK A01 T01860095  RH  055%=      5-min Rain = 0
KMC1 200157Z 16008KT 19/10 A2992 RMK A01 T01860095  RH  055%=      5-min Rain = 0
KMC1 200158Z 15007KT 19/10 A2991 RMK A01 T01860096  RH  056%=      5-min Rain = 0
KMC1 200159Z 15008G13KT 19/10 A2991 RMK A01 T01860096  RH  056%=      5-min Rain = 0
KMC1 200200Z 15009KT 19/10 A2992 RMK A01 T01860097  RH  056%=      5-min Rain = 0
KMC1 200201Z 15010G15KT 19/10 A2992 RMK A01 T01860097  RH  056%=      5-min Rain = 0
KMC1 200202Z 16009KT 19/10 A2992 RMK A01 T01870097  RH  056%=      5-min Rain = 0
KMC1 200203Z 15007KT 19/10 A2992 RMK A01 T01870097  RH  056%=      5-min Rain = 0
KMC1 200204Z 15008G13KT 19/10 A2992 RMK A01 T01870097  RH  056%=      5-min Rain = 0
KMC1 200205Z 15005KT 19/10 A2992 RMK A01 T01860097  RH  056%=      5-min Rain = 0
KMC1 200206Z 16008KT 19/10 A2992 RMK A01 T01850097  RH  056%=      5-min Rain = 0
KMC1 200207Z 15005KT 19/10 A2992 RMK A01 T01850097  RH  057%=      5-min Rain = 0
KMC1 200208Z 15005KT 18/10 A2992 RMK A01 T01840097  RH  057%=      5-min Rain = 0
KMC1 200209Z 15010KT 18/10 A2992 RMK A01 T01840097  RH  057%=      5-min Rain = 0
KMC1 200210Z 15010G15KT 18/10 A2992 RMK A01 T01840098  RH  057%=      5-min Rain = 0
KMC1 200211Z 15009KT 18/10 A2992 RMK A01 T01840098  RH  057%=      5-min Rain = 0
KMC1 200212Z 15006KT 19/10 A2992 RMK A01 T01850098  RH  057%=      5-min Rain = 0
KMC1 200213Z 15009KT 19/10 A2992 RMK A01 T01850098  RH  057%=      5-min Rain = 0
KMC1 200214Z 15006KT 19/10 A2992 RMK A01 T01850098  RH  057%=      5-min Rain = 0
KMC1 200215Z 15008G13KT 18/10 A2992 RMK A01 T01840098  RH  057%=      5-min Rain = 0
KMC1 200216Z 15009KT 18/10 A2992 RMK A01 T01840099  RH  057%=      5-min Rain = 0
KMC1 200217Z 15009KT 18/10 A2992 RMK A01 T01840099  RH  058%=      5-min Rain = 0
KMC1 200218Z 15008KT 18/10 A2992 RMK A01 T01840099  RH  058%=      5-min Rain = 0
KMC1 200219Z 16005G11KT 18/10 A2992 RMK A01 T01840099  RH  058%=      5-min Rain = 0
KMC1 200220Z 16011KT 18/10 A2992 RMK A01 T01840099  RH  058%=      5-min Rain = 0
KMC1 200221Z 16008G14KT 18/10 A2992 RMK A01 T01830099  RH  058%=      5-min Rain = 0
KMC1 200222Z 16008KT 18/10 A2992 RMK A01 T01830099  RH  058%=      5-min Rain = 0
KMC1 200223Z 16006KT 18/10 A2992 RMK A01 T01830099  RH  058%=      5-min Rain = 0
KMC1 200224Z 15007KT 18/10 A2992 RMK A01 T01830099  RH  058%=      5-min Rain = 0
KMC1 200225Z 16009KT 18/10 A2992 RMK A01 T01830099  RH  058%=      5-min Rain = 0
KMC1 200226Z 15009KT 18/10 A2992 RMK A01 T01830099  RH  058%=      5-min Rain = 0
KMC1 200227Z 16008KT 18/10 A2992 RMK A01 T01830099  RH  058%=      5-min Rain = 0
KMC1 200228Z 15009G14KT 18/10 A2992 RMK A01 T01820099  RH  058%=      5-min Rain = 0
KMC1 200229Z 15007KT 18/10 A2992 RMK A01 T01820099  RH  058%=      5-min Rain = 0
KMC1 200230Z 15008KT 18/10 A2992 RMK A01 T01820099  RH  059%=      5-min Rain = 0
KMC1 200231Z 16007KT 18/10 A2992 RMK A01 T01820100  RH  059%=      5-min Rain = 0
KMC1 200232Z 15008KT 18/10 A2992 RMK A01 T01820100  RH  059%=      5-min Rain = 0
KMC1 200233Z 16006KT 18/10 A2992 RMK A01 T01820100  RH  059%=      5-min Rain = 0
KMC1 200234Z 15009KT 18/10 A2992 RMK A01 T01810100  RH  059%=      5-min Rain = 0
KMC1 200235Z 15008KT 18/10 A2992 RMK A01 T01810100  RH  059%=      5-min Rain = 0
KMC1 200236Z 14007KT 18/10 A2992 RMK A01 T01810100  RH  059%=      5-min Rain = 0
KMC1 200237Z 15009G14KT 18/10 A2992 RMK A01 T01810100  RH  059%=      5-min Rain = 0
KMC1 200238Z 16009G14KT 18/10 A2992 RMK A01 T01810100  RH  059%=      5-min Rain = 0
KMC1 200239Z 16009KT 18/10 A2992 RMK A01 T01810101  RH  060%=      5-min Rain = 0
KMC1 200240Z 15008KT 18/10 A2992 RMK A01 T01810101  RH  059%=      5-min Rain = 0
KMC1 200241Z 16007KT 18/10 A2992 RMK A01 T01810101  RH  060%=      5-min Rain = 0
KMC1 200242Z 15007KT 18/10 A2992 RMK A01 T01800101  RH  060%=      5-min Rain = 0
KMC1 200243Z 15008G15KT 18/10 A2992 RMK A01 T01800101  RH  060%=      5-min Rain = 0
KMC1 200244Z 16008KT 18/10 A2992 RMK A01 T01800101  RH  060%=      5-min Rain = 0
KMC1 200245Z 16009KT 18/10 A2992 RMK A01 T01800101  RH  060%=      5-min Rain = 0
KMC1 200246Z 15009KT 18/10 A2992 RMK A01 T01800101  RH  060%=      5-min Rain = 0
KMC1 200247Z 16008KT 18/10 A2992 RMK A01 T01800101  RH  060%=      5-min Rain = 0
KMC1 200248Z 16009KT 18/10 A2993 RMK A01 T01800102  RH  060%=      5-min Rain = 0
KMC1 200249Z 16008KT 18/10 A2993 RMK A01 T01800102  RH  060%=      5-min Rain = 0
KMC1 200250Z 15007KT 18/10 A2993 RMK A01 T01800102  RH  060%=      5-min Rain = 0
KMC1 200251Z 16010KT 18/10 A2993 RMK A01 T01800102  RH  060%=      5-min Rain = 0
KMC1 200252Z 16007KT 18/10 A2993 RMK A01 T01800102  RH  060%=      5-min Rain = 0
KMC1 200253Z 17009KT 18/10 A2993 RMK A01 T01800102  RH  060%=      5-min Rain = 0
KMC1 200254Z 16008KT 18/10 A2993 RMK A01 T01790102  RH  060%=      5-min Rain = 0
KMC1 200255Z 16008KT 18/10 A2993 RMK A01 T01790102  RH  061%=      5-min Rain = 0
KMC1 200256Z 17007KT 18/10 A2993 RMK A01 T01790102  RH  061%=      5-min Rain = 0
KMC1 200257Z 16007KT 18/10 A2993 RMK A01 T01790102  RH  061%=      5-min Rain = 0
KMC1 200258Z 16008KT 18/10 A2993 RMK A01 T01780102  RH  061%=      5-min Rain = 0
KMC1 200259Z 17008KT 18/10 A2993 RMK A01 T01780102  RH  061%=      5-min Rain = 0
KMC1 200300Z 16008G13KT 18/10 A2993 RMK A01 T01780102  RH  061%=      5-min Rain = 0
KMC1 200301Z 17009KT 18/10 A2993 RMK A01 T01780102  RH  061%=      5-min Rain = 0
KMC1 200302Z 16008KT 18/10 A2993 RMK A01 T01780102  RH  061%=      5-min Rain = 0
KMC1 200303Z 16006KT 18/10 A2993 RMK A01 T01770102  RH  061%=      5-min Rain = 0
KMC1 200304Z 16006KT 18/10 A2993 RMK A01 T01770102  RH  061%=      5-min Rain = 0
KMC1 200305Z 16009KT 18/10 A2993 RMK A01 T01760102  RH  062%=      5-min Rain = 0
KMC1 200306Z 16009KT 18/10 A2993 RMK A01 T01760102  RH  062%=      5-min Rain = 0
KMC1 200307Z 15007KT 18/10 A2993 RMK A01 T01770102  RH  062%=      5-min Rain = 0
KMC1 200308Z 15008KT 18/10 A2993 RMK A01 T01770102  RH  062%=      5-min Rain = 0
KMC1 200309Z 16008KT 18/10 A2993 RMK A01 T01770103  RH  062%=      5-min Rain = 0
KMC1 200310Z 16008KT 18/10 A2993 RMK A01 T01770103  RH  062%=      5-min Rain = 0
KMC1 200311Z 16006KT 18/10 A2994 RMK A01 T01770102  RH  062%=      5-min Rain = 0
KMC1 200312Z 16007KT 18/10 A2994 RMK A01 T01760102  RH  062%=      5-min Rain = 0
KMC1 200313Z 16007KT 18/10 A2994 RMK A01 T01760103  RH  062%=      5-min Rain = 0
KMC1 200314Z 15006KT 18/10 A2994 RMK A01 T01760103  RH  062%=      5-min Rain = 0
KMC1 200315Z 16007KT 18/10 A2994 RMK A01 T01760102  RH  062%=      5-min Rain = 0
KMC1 200316Z 16007KT 18/10 A2994 RMK A01 T01750102  RH  062%=      5-min Rain = 0
KMC1 200317Z 16008KT 18/10 A2994 RMK A01 T01750103  RH  063%=      5-min Rain = 0
KMC1 200318Z 15008KT 18/10 A2993 RMK A01 T01750103  RH  063%=      5-min Rain = 0
KMC1 200319Z 16009G14KT 18/10 A2993 RMK A01 T01750103  RH  063%=      5-min Rain = 0
KMC1 200320Z 15009KT 18/10 A2993 RMK A01 T01750103  RH  062%=      5-min Rain = 0
KMC1 200321Z 15007KT 18/10 A2993 RMK A01 T01750103  RH  062%=      5-min Rain = 0
KMC1 200322Z 16006KT 18/10 A2993 RMK A01 T01750103  RH  062%=      5-min Rain = 0
KMC1 200323Z 16006KT 18/10 A2993 RMK A01 T01750103  RH  063%=      5-min Rain = 0
KMC1 200324Z 15007G12KT 17/10 A2993 RMK A01 T01740102  RH  063%=      5-min Rain = 0
KMC1 200325Z 16008KT 17/10 A2993 RMK A01 T01740103  RH  063%=      5-min Rain = 0
KMC1 200326Z 15008G13KT 17/10 A2993 RMK A01 T01740103  RH  063%=      5-min Rain = 0
KMC1 200327Z 16008KT 17/10 A2993 RMK A01 T01740103  RH  063%=      5-min Rain = 0
KMC1 200328Z 15008KT 17/10 A2993 RMK A01 T01740103  RH  063%=      5-min Rain = 0
KMC1 200329Z 16011KT 17/10 A2993 RMK A01 T01740103  RH  063%=      5-min Rain = 0
KMC1 200330Z 16008KT 18/10 A2993 RMK A01 T01750103  RH  063%=      5-min Rain = 0
KMC1 200331Z 15009KT 17/10 A2993 RMK A01 T01740102  RH  063%=      5-min Rain = 0
KMC1 200332Z 15007G12KT 17/10 A2993 RMK A01 T01740103  RH  063%=      5-min Rain = 0
KMC1 200333Z 15008KT 17/10 A2993 RMK A01 T01740103  RH  063%=      5-min Rain = 0
KMC1 200334Z 16007KT 17/10 A2993 RMK A01 T01740104  RH  063%=      5-min Rain = 0
KMC1 200335Z 15007KT 17/10 A2993 RMK A01 T01740104  RH  063%=      5-min Rain = 0
KMC1 200336Z 15013G18KT 17/11 A2993 RMK A01 T01730105  RH  064%=      5-min Rain = 0
KMC1 200337Z 15008G13KT 17/11 A2993 RMK A01 T01740106  RH  064%=      5-min Rain = 0
KMC1 200338Z 16008KT 17/11 A2993 RMK A01 T01740106  RH  064%=      5-min Rain = 0
KMC1 200339Z 14008G15KT 17/11 A2993 RMK A01 T01740107  RH  064%=      5-min Rain = 0
KMC1 200340Z 15009KT 17/11 A2993 RMK A01 T01740107  RH  065%=      5-min Rain = 0
KMC1 200341Z 15010G15KT 17/11 A2993 RMK A01 T01740107  RH  065%=      5-min Rain = 0
KMC1 200342Z 15009KT 17/11 A2993 RMK A01 T01740108  RH  065%=      5-min Rain = 0
KMC1 200343Z 16006KT 17/11 A2993 RMK A01 T01740108  RH  065%=      5-min Rain = 0
KMC1 200344Z 15008KT 17/11 A2993 RMK A01 T01740108  RH  065%=      5-min Rain = 0
KMC1 200345Z 15009KT 17/11 A2993 RMK A01 T01730108  RH  066%=      5-min Rain = 0
KMC1 200346Z 16009KT 17/11 A2993 RMK A01 T01730109  RH  066%=      5-min Rain = 0
KMC1 200347Z 16010KT 17/11 A2993 RMK A01 T01730109  RH  066%=      5-min Rain = 0
KMC1 200348Z 17010KT 17/11 A2993 RMK A01 T01730109  RH  066%=      5-min Rain = 0
KMC1 200349Z 16008KT 17/11 A2993 RMK A01 T01730110  RH  066%=      5-min Rain = 0
KMC1 200350Z 16009KT 17/11 A2993 RMK A01 T01730109  RH  066%=      5-min Rain = 0
KMC1 200351Z 16008KT 17/11 A2993 RMK A01 T01720110  RH  067%=      5-min Rain = 0
KMC1 200352Z 16006KT 17/11 A2993 RMK A01 T01720110  RH  067%=      5-min Rain = 0
KMC1 200353Z 16007KT 17/11 A2993 RMK A01 T01720110  RH  067%=      5-min Rain = 0
KMC1 200354Z 15009KT 17/11 A2993 RMK A01 T01720110  RH  067%=      5-min Rain = 0
KMC1 200355Z 16009KT 17/11 A2993 RMK A01 T01720110  RH  067%=      5-min Rain = 0
KMC1 200356Z 16009KT 17/11 A2993 RMK A01 T01720110  RH  067%=      5-min Rain = 0
KMC1 200357Z 16010KT 17/11 A2993 RMK A01 T01720110  RH  067%=      5-min Rain = 0
KMC1 200358Z 15009KT 17/11 A2993 RMK A01 T01720111  RH  067%=      5-min Rain = 0
KMC1 200359Z 16012G17KT 17/11 A2993 RMK A01 T01720111  RH  067%=      5-min Rain = 0
KMC1 200400Z 16007KT 17/11 A2993 RMK A01 T01720111  RH  068%=      5-min Rain = 0
KMC1 200401Z 15008KT 17/11 A2993 RMK A01 T01710111  RH  067%=      5-min Rain = 0
KMC1 200402Z 15011KT 17/11 A2993 RMK A01 T01710111  RH  068%=      5-min Rain = 0
KMC1 200403Z 16007KT 17/11 A2993 RMK A01 T01710111  RH  068%=      5-min Rain = 0
KMC1 200404Z 16011G16KT 17/11 A2993 RMK A01 T01710111  RH  068%=      5-min Rain = 0
KMC1 200405Z 16007KT 17/11 A2993 RMK A01 T01710112  RH  068%=      5-min Rain = 0
KMC1 200406Z 16007KT 17/11 A2993 RMK A01 T01710112  RH  068%=      5-min Rain = 0
KMC1 200407Z 15007KT 17/11 A2993 RMK A01 T01700112  RH  068%=      5-min Rain = 0
KMC1 200408Z 15008KT 17/11 A2993 RMK A01 T01700111  RH  069%=      5-min Rain = 0
KMC1 200409Z 16008G14KT 17/11 A2993 RMK A01 T01690112  RH  069%=      5-min Rain = 0
KMC1 200410Z 16008KT 17/11 A2993 RMK A01 T01690112  RH  069%=      5-min Rain = 0
KMC1 200411Z 16009G14KT 17/11 A2993 RMK A01 T01690112  RH  069%=      5-min Rain = 0
KMC1 200412Z 16009KT 17/11 A2993 RMK A01 T01690112  RH  069%=      5-min Rain = 0
KMC1 200413Z 16008KT 17/11 A2993 RMK A01 T01690112  RH  069%=      5-min Rain = 0
KMC1 200414Z 16006KT 17/11 A2993 RMK A01 T01690113  RH  069%=      5-min Rain = 0
KMC1 200415Z 16009KT 17/11 A2993 RMK A01 T01680112  RH  069%=      5-min Rain = 0
KMC1 200416Z 16011KT 17/11 A2993 RMK A01 T01680112  RH  070%=      5-min Rain = 0
KMC1 200417Z 16008G14KT 17/11 A2993 RMK A01 T01680113  RH  070%=      5-min Rain = 0
KMC1 200418Z 16011KT 17/11 A2993 RMK A01 T01680113  RH  070%=      5-min Rain = 0
KMC1 200419Z 16009G14KT 17/11 A2993 RMK A01 T01680113  RH  070%=      5-min Rain = 0
KMC1 200420Z 16010G16KT 17/11 A2993 RMK A01 T01690113  RH  070%=      5-min Rain = 0
KMC1 200421Z 16009G16KT 17/11 A2993 RMK A01 T01680113  RH  070%=      5-min Rain = 0
KMC1 200422Z 16009KT 17/11 A2993 RMK A01 T01680113  RH  070%=      5-min Rain = 0
KMC1 200423Z 16010G16KT 17/11 A2993 RMK A01 T01680113  RH  070%=      5-min Rain = 0
KMC1 200424Z 16010KT 17/11 A2993 RMK A01 T01680113  RH  070%=      5-min Rain = 0
KMC1 200425Z 16009KT 17/11 A2993 RMK A01 T01680114  RH  070%=      5-min Rain = 0
KMC1 200426Z 15008KT 17/11 A2993 RMK A01 T01670114  RH  071%=      5-min Rain = 0
KMC1 200427Z 16008KT 17/11 A2993 RMK A01 T01680114  RH  071%=      5-min Rain = 0
KMC1 200428Z 16007KT 17/11 A2993 RMK A01 T01670114  RH  071%=      5-min Rain = 0
KMC1 200429Z 15010KT 17/11 A2993 RMK A01 T01670114  RH  071%=      5-min Rain = 0
KMC1 200430Z 15009KT 17/12 A2993 RMK A01 T01670115  RH  071%=      5-min Rain = 0
KMC1 200431Z 15009G15KT 17/12 A2992 RMK A01 T01670115  RH  071%=      5-min Rain = 0
KMC1 200432Z 15007KT 17/12 A2992 RMK A01 T01670115  RH  072%=      5-min Rain = 0
KMC1 200433Z 15008KT 17/12 A2992 RMK A01 T01660115  RH  072%=      5-min Rain = 0
KMC1 200434Z 17008KT 17/12 A2992 RMK A01 T01670116  RH  072%=      5-min Rain = 0
KMC1 200435Z 15009G14KT 17/12 A2993 RMK A01 T01670116  RH  072%=      5-min Rain = 0
KMC1 200436Z 15010KT 17/12 A2993 RMK A01 T01670116  RH  072%=      5-min Rain = 0
KMC1 200437Z 17009KT 17/12 A2993 RMK A01 T01670116  RH  072%=      5-min Rain = 0
KMC1 200438Z 16008KT 17/12 A2993 RMK A01 T01660116  RH  072%=      5-min Rain = 0
KMC1 200439Z 16008G13KT 17/12 A2993 RMK A01 T01670117  RH  072%=      5-min Rain = 0
KMC1 200440Z 16009KT 17/12 A2993 RMK A01 T01660117  RH  072%=      5-min Rain = 0
KMC1 200441Z 17008KT 17/12 A2993 RMK A01 T01660117  RH  073%=      5-min Rain = 0
KMC1 200442Z 16008KT 17/12 A2993 RMK A01 T01670117  RH  072%=      5-min Rain = 0
KMC1 200443Z 16007KT 17/12 A2993 RMK A01 T01660117  RH  073%=      5-min Rain = 0
KMC1 200444Z 17007KT 17/12 A2993 RMK A01 T01660117  RH  073%=      5-min Rain = 0
KMC1 200445Z 17008G13KT 17/12 A2993 RMK A01 T01650117  RH  073%=      5-min Rain = 0
KMC1 200446Z 17008KT 17/12 A2993 RMK A01 T01650117  RH  073%=      5-min Rain = 0
KMC1 200447Z 17010KT 17/12 A2993 RMK A01 T01650117  RH  073%=      5-min Rain = 0
KMC1 200448Z 16008KT 17/12 A2993 RMK A01 T01650117  RH  073%=      5-min Rain = 0
KMC1 200449Z 16006KT 17/12 A2993 RMK A01 T01650117  RH  073%=      5-min Rain = 0
KMC1 200450Z 16008KT 17/12 A2993 RMK A01 T01650117  RH  073%=      5-min Rain = 0
KMC1 200451Z 16008KT 16/12 A2993 RMK A01 T01640117  RH  073%=      5-min Rain = 0
KMC1 200452Z 16008G13KT 16/12 A2993 RMK A01 T01640117  RH  074%=      5-min Rain = 0
KMC1 200453Z 16009KT 16/12 A2993 RMK A01 T01640117  RH  074%=      5-min Rain = 0
KMC1 200454Z 16007KT 16/12 A2993 RMK A01 T01640117  RH  074%=      5-min Rain = 0
KMC1 200455Z 16006KT 16/12 A2992 RMK A01 T01640118  RH  074%=      5-min Rain = 0
KMC1 200456Z 16010KT 16/12 A2992 RMK A01 T01640117  RH  074%=      5-min Rain = 0
KMC1 200457Z 16008KT 16/12 A2993 RMK A01 T01640118  RH  074%=      5-min Rain = 0
KMC1 200458Z 16008KT 16/12 A2993 RMK A01 T01640118  RH  074%=      5-min Rain = 0
KMC1 200459Z 15007KT 16/12 A2993 RMK A01 T01640118  RH  074%=      5-min Rain = 0
KMC1 200500Z 16007KT 16/12 A2993 RMK A01 T01640118  RH  074%=      5-min Rain = 0
KMC1 200501Z 17006KT 16/12 A2993 RMK A01 T01630118  RH  074%=      5-min Rain = 0
KMC1 200502Z 16008KT 16/12 A2993 RMK A01 T01630117  RH  075%=      5-min Rain = 0
KMC1 200503Z 16007KT 16/12 A2993 RMK A01 T01620118  RH  075%=      5-min Rain = 0
KMC1 200504Z 16007KT 16/12 A2993 RMK A01 T01620118  RH  075%=      5-min Rain = 0
KMC1 200505Z 16008KT 16/12 A2993 RMK A01 T01620118  RH  075%=      5-min Rain = 0
KMC1 200506Z 16010KT 16/12 A2993 RMK A01 T01620118  RH  075%=      5-min Rain = 0
KMC1 200507Z 16007KT 16/12 A2993 RMK A01 T01620118  RH  075%=      5-min Rain = 0
KMC1 200508Z 16010KT 16/12 A2993 RMK A01 T01620118  RH  075%=      5-min Rain = 0
KMC1 200509Z 16008KT 16/12 A2993 RMK A01 T01620118  RH  075%=      5-min Rain = 0
KMC1 200510Z 16007G12KT 16/12 A2993 RMK A01 T01620118  RH  075%=      5-min Rain = 0
KMC1 200511Z 17009KT 16/12 A2993 RMK A01 T01620118  RH  075%=      5-min Rain = 0
KMC1 200512Z 16007KT 16/12 A2993 RMK A01 T01610118  RH  075%=      5-min Rain = 0
KMC1 200513Z 16005KT 16/12 A2993 RMK A01 T01610118  RH  076%=      5-min Rain = 0
KMC1 200514Z 16007KT 16/12 A2993 RMK A01 T01600118  RH  076%=      5-min Rain = 0
KMC1 200515Z 16008KT 16/12 A2993 RMK A01 T01600118  RH  076%=      5-min Rain = 0
KMC1 200516Z 16006KT 16/12 A2993 RMK A01 T01600118  RH  076%=      5-min Rain = 0
KMC1 200517Z 17005KT 16/12 A2993 RMK A01 T01590118  RH  076%=      5-min Rain = 0
KMC1 200518Z 16008KT 16/12 A2993 RMK A01 T01590118  RH  077%=      5-min Rain = 0
KMC1 200519Z 16007KT 16/12 A2993 RMK A01 T01590118  RH  077%=      5-min Rain = 0
KMC1 200520Z 15007KT 16/12 A2993 RMK A01 T01580118  RH  077%=      5-min Rain = 0
KMC1 200521Z 15008KT 16/12 A2993 RMK A01 T01580118  RH  077%=      5-min Rain = 0
KMC1 200522Z 15007KT 16/12 A2992 RMK A01 T01580118  RH  077%=      5-min Rain = 0
KMC1 200523Z 15006KT 16/12 A2992 RMK A01 T01580118  RH  077%=      5-min Rain = 0
KMC1 200524Z 16007G12KT 16/12 A2992 RMK A01 T01580118  RH  077%=      5-min Rain = 0
KMC1 200525Z 16009KT 16/12 A2992 RMK A01 T01580119  RH  077%=      5-min Rain = 0
KMC1 200526Z 16008KT 16/12 A2993 RMK A01 T01590119  RH  077%=      5-min Rain = 0
KMC1 200527Z 15007KT 16/12 A2992 RMK A01 T01590119  RH  077%=      5-min Rain = 0
KMC1 200528Z 16008KT 16/12 A2992 RMK A01 T01590119  RH  077%=      5-min Rain = 0
KMC1 200529Z 16008KT 16/12 A2992 RMK A01 T01590119  RH  077%=      5-min Rain = 0
KMC1 200530Z 15006KT 16/12 A2992 RMK A01 T01590119  RH  077%=      5-min Rain = 0
KMC1 200531Z 15006KT 16/12 A2992 RMK A01 T01580119  RH  077%=      5-min Rain = 0
KMC1 200532Z 16008KT 16/12 A2992 RMK A01 T01580119  RH  078%=      5-min Rain = 0
KMC1 200533Z 16008G13KT 16/12 A2992 RMK A01 T01590120  RH  078%=      5-min Rain = 0
KMC1 200534Z 16007KT 16/12 A2992 RMK A01 T01580119  RH  078%=      5-min Rain = 0
KMC1 200535Z 16007KT 16/12 A2992 RMK A01 T01580119  RH  078%=      5-min Rain = 0
KMC1 200536Z 16006G11KT 16/12 A2992 RMK A01 T01580119  RH  078%=      5-min Rain = 0
KMC1 200537Z 16008KT 16/12 A2992 RMK A01 T01570119  RH  078%=      5-min Rain = 0
KMC1 200538Z 16008KT 16/12 A2992 RMK A01 T01570119  RH  078%=      5-min Rain = 0
KMC1 200539Z 16006KT 16/12 A2992 RMK A01 T01570119  RH  078%=      5-min Rain = 0
KMC1 200540Z 15006KT 16/12 A2992 RMK A01 T01570119  RH  078%=      5-min Rain = 0
KMC1 200541Z 17007KT 16/12 A2992 RMK A01 T01570119  RH  078%=      5-min Rain = 0
KMC1 200542Z 16007KT 16/12 A2992 RMK A01 T01560119  RH  078%=      5-min Rain = 0
KMC1 200543Z 15006KT 16/12 A2992 RMK A01 T01570120  RH  079%=      5-min Rain = 0
KMC1 200544Z 16007KT 16/12 A2992 RMK A01 T01560119  RH  079%=      5-min Rain = 0
KMC1 200545Z 17008KT 16/12 A2992 RMK A01 T01560120  RH  079%=      5-min Rain = 0
KMC1 200546Z 16007KT 16/12 A2992 RMK A01 T01560120  RH  079%=      5-min Rain = 0
KMC1 200547Z 17008KT 16/12 A2992 RMK A01 T01560120  RH  079%=      5-min Rain = 0
KMC1 200548Z 16008KT 16/12 A2992 RMK A01 T01560120  RH  079%=      5-min Rain = 0
KMC1 200549Z 16006KT 16/12 A2992 RMK A01 T01560120  RH  079%=      5-min Rain = 0
KMC1 200550Z 16006KT 16/12 A2992 RMK A01 T01560120  RH  079%=      5-min Rain = 0
KMC1 200551Z 16007KT 16/12 A2992 RMK A01 T01560120  RH  079%=      5-min Rain = 0
KMC1 200552Z 16007KT 16/12 A2992 RMK A01 T01560120  RH  079%=      5-min Rain = 0
KMC1 200553Z 17007KT 16/12 A2992 RMK A01 T01560120  RH  079%=      5-min Rain = 0
KMC1 200554Z 16007KT 16/12 A2992 RMK A01 T01560120  RH  079%=      5-min Rain = 0
KMC1 200555Z 16008KT 16/12 A2992 RMK A01 T01560121  RH  079%=      5-min Rain = 0
KMC1 200556Z 16007KT 16/12 A2992 RMK A01 T01560121  RH  080%=      5-min Rain = 0
KMC1 200557Z 17006KT 16/12 A2992 RMK A01 T01560121  RH  080%=      5-min Rain = 0
KMC1 200558Z 17008KT 16/12 A2992 RMK A01 T01560121  RH  080%=      5-min Rain = 0
KMC1 200559Z 17007KT 16/12 A2993 RMK A01 T01560121  RH  080%=      5-min Rain = 0

Page generated in 0.1317 seconds.